<?xml version="1.0" encoding="UTF-8" standalone="no" ?>
<gpx xmlns="http://www.topografix.com/GPX/1/1" xmlns:xsi="http://www.w3.org/2001/XMLSchema-instance" xsi:schemaLocation="http://www.topografix.com/GPX/1/1 http://www.topografix.com/GPX/1/1/gpx.xsd" version="1.1" creator="VisuGPX - https://www.visugpx.com">
  <metadata>
    <name>2013_09_23_Les Vans</name>
    <desc><![CDATA[Randonnée du Recoin de Chamrousse aux Vans par les Lacs Roberts ~ boris-petit.fr]]></desc>
  </metadata>
  <trk>
    <name><![CDATA[2013-09-23 21:19:19]]></name>
    <trkseg>
      <trkpt lat="45.12549" lon="5.87896">
        <ele>1667</ele>
        <time>2013-09-23T14:49:02Z</time>
      </trkpt>
      <trkpt lat="45.1255" lon="5.87898">
        <ele>1667</ele>
        <time>2013-09-23T14:49:07Z</time>
      </trkpt>
      <trkpt lat="45.12565" lon="5.87917">
        <ele>1670</ele>
        <time>2013-09-23T14:49:24Z</time>
      </trkpt>
      <trkpt lat="45.12585" lon="5.87908">
        <ele>1675</ele>
        <time>2013-09-23T14:49:38Z</time>
      </trkpt>
      <trkpt lat="45.12606" lon="5.87899">
        <ele>1678</ele>
        <time>2013-09-23T14:49:54Z</time>
      </trkpt>
      <trkpt lat="45.12629" lon="5.87899">
        <ele>1681</ele>
        <time>2013-09-23T14:50:09Z</time>
      </trkpt>
      <trkpt lat="45.12635" lon="5.879">
        <ele>1682</ele>
        <time>2013-09-23T14:50:13Z</time>
      </trkpt>
      <trkpt lat="45.12638" lon="5.87908">
        <ele>1682</ele>
        <time>2013-09-23T14:50:17Z</time>
      </trkpt>
      <trkpt lat="45.12645" lon="5.87939">
        <ele>1683</ele>
        <time>2013-09-23T14:50:33Z</time>
      </trkpt>
      <trkpt lat="45.12654" lon="5.8796">
        <ele>1683</ele>
        <time>2013-09-23T14:50:45Z</time>
      </trkpt>
      <trkpt lat="45.12659" lon="5.87974">
        <ele>1683</ele>
        <time>2013-09-23T14:50:54Z</time>
      </trkpt>
      <trkpt lat="45.12666" lon="5.87977">
        <ele>1684</ele>
        <time>2013-09-23T14:50:59Z</time>
      </trkpt>
      <trkpt lat="45.12683" lon="5.8799">
        <ele>1695</ele>
        <time>2013-09-23T14:51:14Z</time>
      </trkpt>
      <trkpt lat="45.12687" lon="5.87992">
        <ele>1696</ele>
        <time>2013-09-23T14:51:18Z</time>
      </trkpt>
      <trkpt lat="45.12696" lon="5.87998">
        <ele>1698</ele>
        <time>2013-09-23T14:51:27Z</time>
      </trkpt>
      <trkpt lat="45.127" lon="5.88003">
        <ele>1700</ele>
        <time>2013-09-23T14:51:31Z</time>
      </trkpt>
      <trkpt lat="45.1271" lon="5.88011">
        <ele>1702</ele>
        <time>2013-09-23T14:51:39Z</time>
      </trkpt>
      <trkpt lat="45.12716" lon="5.88013">
        <ele>1703</ele>
        <time>2013-09-23T14:51:44Z</time>
      </trkpt>
      <trkpt lat="45.12729" lon="5.88023">
        <ele>1705</ele>
        <time>2013-09-23T14:51:57Z</time>
      </trkpt>
      <trkpt lat="45.1274" lon="5.88035">
        <ele>1706</ele>
        <time>2013-09-23T14:52:08Z</time>
      </trkpt>
      <trkpt lat="45.12746" lon="5.88041">
        <ele>1706</ele>
        <time>2013-09-23T14:52:15Z</time>
      </trkpt>
      <trkpt lat="45.12752" lon="5.88045">
        <ele>1722</ele>
        <time>2013-09-23T14:52:20Z</time>
      </trkpt>
      <trkpt lat="45.12757" lon="5.88052">
        <ele>1723</ele>
        <time>2013-09-23T14:52:26Z</time>
      </trkpt>
      <trkpt lat="45.12764" lon="5.88065">
        <ele>1722</ele>
        <time>2013-09-23T14:52:40Z</time>
      </trkpt>
      <trkpt lat="45.12769" lon="5.88073">
        <ele>1722</ele>
        <time>2013-09-23T14:52:45Z</time>
      </trkpt>
      <trkpt lat="45.12772" lon="5.88076">
        <ele>1723</ele>
        <time>2013-09-23T14:52:48Z</time>
      </trkpt>
      <trkpt lat="45.1278" lon="5.88098">
        <ele>1728</ele>
        <time>2013-09-23T14:53:01Z</time>
      </trkpt>
      <trkpt lat="45.12782" lon="5.88107">
        <ele>1729</ele>
        <time>2013-09-23T14:53:06Z</time>
      </trkpt>
      <trkpt lat="45.12787" lon="5.88127">
        <ele>1731</ele>
        <time>2013-09-23T14:53:16Z</time>
      </trkpt>
      <trkpt lat="45.12795" lon="5.88139">
        <ele>1732</ele>
        <time>2013-09-23T14:53:26Z</time>
      </trkpt>
      <trkpt lat="45.12796" lon="5.88139">
        <ele>1733</ele>
        <time>2013-09-23T14:53:27Z</time>
      </trkpt>
      <trkpt lat="45.12802" lon="5.88141">
        <ele>1734</ele>
        <time>2013-09-23T14:53:33Z</time>
      </trkpt>
      <trkpt lat="45.12805" lon="5.88147">
        <ele>1735</ele>
        <time>2013-09-23T14:53:37Z</time>
      </trkpt>
      <trkpt lat="45.12809" lon="5.88163">
        <ele>1737</ele>
        <time>2013-09-23T14:53:49Z</time>
      </trkpt>
      <trkpt lat="45.12814" lon="5.88185">
        <ele>1744</ele>
        <time>2013-09-23T14:54:03Z</time>
      </trkpt>
      <trkpt lat="45.12831" lon="5.88211">
        <ele>1746</ele>
        <time>2013-09-23T14:54:21Z</time>
      </trkpt>
      <trkpt lat="45.1284" lon="5.88222">
        <ele>1761</ele>
        <time>2013-09-23T14:54:33Z</time>
      </trkpt>
      <trkpt lat="45.12847" lon="5.8823">
        <ele>1761</ele>
        <time>2013-09-23T14:54:41Z</time>
      </trkpt>
      <trkpt lat="45.12854" lon="5.8824">
        <ele>1762</ele>
        <time>2013-09-23T14:54:51Z</time>
      </trkpt>
      <trkpt lat="45.1286" lon="5.88247">
        <ele>1763</ele>
        <time>2013-09-23T14:55:00Z</time>
      </trkpt>
      <trkpt lat="45.12862" lon="5.88248">
        <ele>1764</ele>
        <time>2013-09-23T14:55:02Z</time>
      </trkpt>
      <trkpt lat="45.12864" lon="5.88249">
        <ele>1764</ele>
        <time>2013-09-23T14:55:04Z</time>
      </trkpt>
      <trkpt lat="45.12871" lon="5.88259">
        <ele>1773</ele>
        <time>2013-09-23T14:55:15Z</time>
      </trkpt>
      <trkpt lat="45.12874" lon="5.88266">
        <ele>1774</ele>
        <time>2013-09-23T14:55:23Z</time>
      </trkpt>
      <trkpt lat="45.12875" lon="5.88279">
        <ele>1775</ele>
        <time>2013-09-23T14:55:34Z</time>
      </trkpt>
      <trkpt lat="45.12876" lon="5.88291">
        <ele>1776</ele>
        <time>2013-09-23T14:55:45Z</time>
      </trkpt>
      <trkpt lat="45.12877" lon="5.88302">
        <ele>1777</ele>
        <time>2013-09-23T14:55:55Z</time>
      </trkpt>
      <trkpt lat="45.12876" lon="5.88307">
        <ele>1777</ele>
        <time>2013-09-23T14:56:00Z</time>
      </trkpt>
      <trkpt lat="45.12873" lon="5.88313">
        <ele>1777</ele>
        <time>2013-09-23T14:56:04Z</time>
      </trkpt>
      <trkpt lat="45.12862" lon="5.88339">
        <ele>1782</ele>
        <time>2013-09-23T14:56:19Z</time>
      </trkpt>
      <trkpt lat="45.1285" lon="5.88364">
        <ele>1782</ele>
        <time>2013-09-23T14:56:36Z</time>
      </trkpt>
      <trkpt lat="45.12845" lon="5.88375">
        <ele>1783</ele>
        <time>2013-09-23T14:56:45Z</time>
      </trkpt>
      <trkpt lat="45.1284" lon="5.88385">
        <ele>1784</ele>
        <time>2013-09-23T14:56:53Z</time>
      </trkpt>
      <trkpt lat="45.12829" lon="5.88404">
        <ele>1781</ele>
        <time>2013-09-23T14:57:05Z</time>
      </trkpt>
      <trkpt lat="45.1282" lon="5.88416">
        <ele>1781</ele>
        <time>2013-09-23T14:57:16Z</time>
      </trkpt>
      <trkpt lat="45.12813" lon="5.88428">
        <ele>1791</ele>
        <time>2013-09-23T14:57:25Z</time>
      </trkpt>
      <trkpt lat="45.12802" lon="5.88445">
        <ele>1793</ele>
        <time>2013-09-23T14:57:38Z</time>
      </trkpt>
      <trkpt lat="45.12792" lon="5.88455">
        <ele>1795</ele>
        <time>2013-09-23T14:57:46Z</time>
      </trkpt>
      <trkpt lat="45.12786" lon="5.88453">
        <ele>1794</ele>
        <time>2013-09-23T14:58:02Z</time>
      </trkpt>
      <trkpt lat="45.12783" lon="5.88461">
        <ele>1795</ele>
        <time>2013-09-23T14:58:22Z</time>
      </trkpt>
      <trkpt lat="45.12776" lon="5.88485">
        <ele>1798</ele>
        <time>2013-09-23T14:58:39Z</time>
      </trkpt>
      <trkpt lat="45.12773" lon="5.88498">
        <ele>1799</ele>
        <time>2013-09-23T14:58:49Z</time>
      </trkpt>
      <trkpt lat="45.12772" lon="5.88501">
        <ele>1810</ele>
        <time>2013-09-23T14:58:51Z</time>
      </trkpt>
      <trkpt lat="45.12765" lon="5.88515">
        <ele>1811</ele>
        <time>2013-09-23T14:59:01Z</time>
      </trkpt>
      <trkpt lat="45.1276" lon="5.88529">
        <ele>1813</ele>
        <time>2013-09-23T14:59:12Z</time>
      </trkpt>
      <trkpt lat="45.12748" lon="5.88547">
        <ele>1807</ele>
        <time>2013-09-23T14:59:25Z</time>
      </trkpt>
      <trkpt lat="45.12737" lon="5.88579">
        <ele>1811</ele>
        <time>2013-09-23T14:59:43Z</time>
      </trkpt>
      <trkpt lat="45.12732" lon="5.88605">
        <ele>1814</ele>
        <time>2013-09-23T14:59:58Z</time>
      </trkpt>
      <trkpt lat="45.12724" lon="5.88637">
        <ele>1815</ele>
        <time>2013-09-23T15:00:15Z</time>
      </trkpt>
      <trkpt lat="45.12724" lon="5.88674">
        <ele>1820</ele>
        <time>2013-09-23T15:00:34Z</time>
      </trkpt>
      <trkpt lat="45.12731" lon="5.88708">
        <ele>1820</ele>
        <time>2013-09-23T15:00:52Z</time>
      </trkpt>
      <trkpt lat="45.12739" lon="5.8874">
        <ele>1823</ele>
        <time>2013-09-23T15:01:08Z</time>
      </trkpt>
      <trkpt lat="45.12746" lon="5.88774">
        <ele>1823</ele>
        <time>2013-09-23T15:01:24Z</time>
      </trkpt>
      <trkpt lat="45.12757" lon="5.88801">
        <ele>1830</ele>
        <time>2013-09-23T15:01:40Z</time>
      </trkpt>
      <trkpt lat="45.12767" lon="5.88831">
        <ele>1828</ele>
        <time>2013-09-23T15:01:56Z</time>
      </trkpt>
      <trkpt lat="45.12773" lon="5.88863">
        <ele>1824</ele>
        <time>2013-09-23T15:02:12Z</time>
      </trkpt>
      <trkpt lat="45.12756" lon="5.88892">
        <ele>1826</ele>
        <time>2013-09-23T15:02:30Z</time>
      </trkpt>
      <trkpt lat="45.12753" lon="5.88909">
        <ele>1829</ele>
        <time>2013-09-23T15:02:40Z</time>
      </trkpt>
      <trkpt lat="45.12747" lon="5.88919">
        <ele>1833</ele>
        <time>2013-09-23T15:02:49Z</time>
      </trkpt>
      <trkpt lat="45.12746" lon="5.88926">
        <ele>1835</ele>
        <time>2013-09-23T15:02:55Z</time>
      </trkpt>
      <trkpt lat="45.1275" lon="5.88938">
        <ele>1838</ele>
        <time>2013-09-23T15:03:12Z</time>
      </trkpt>
      <trkpt lat="45.12748" lon="5.88938">
        <ele>1838</ele>
        <time>2013-09-23T15:03:40Z</time>
      </trkpt>
      <trkpt lat="45.12749" lon="5.8894">
        <ele>1839</ele>
        <time>2013-09-23T15:03:54Z</time>
      </trkpt>
      <trkpt lat="45.12748" lon="5.88955">
        <ele>1841</ele>
        <time>2013-09-23T15:04:04Z</time>
      </trkpt>
      <trkpt lat="45.12746" lon="5.8897">
        <ele>1843</ele>
        <time>2013-09-23T15:04:14Z</time>
      </trkpt>
      <trkpt lat="45.12731" lon="5.88988">
        <ele>1845</ele>
        <time>2013-09-23T15:04:30Z</time>
      </trkpt>
      <trkpt lat="45.12729" lon="5.89002">
        <ele>1853</ele>
        <time>2013-09-23T15:04:40Z</time>
      </trkpt>
      <trkpt lat="45.12727" lon="5.89013">
        <ele>1854</ele>
        <time>2013-09-23T15:04:51Z</time>
      </trkpt>
      <trkpt lat="45.12725" lon="5.89031">
        <ele>1856</ele>
        <time>2013-09-23T15:05:04Z</time>
      </trkpt>
      <trkpt lat="45.12724" lon="5.89051">
        <ele>1858</ele>
        <time>2013-09-23T15:05:17Z</time>
      </trkpt>
      <trkpt lat="45.12725" lon="5.89081">
        <ele>1858</ele>
        <time>2013-09-23T15:05:35Z</time>
      </trkpt>
      <trkpt lat="45.12725" lon="5.891">
        <ele>1869</ele>
        <time>2013-09-23T15:05:48Z</time>
      </trkpt>
      <trkpt lat="45.12729" lon="5.89113">
        <ele>1870</ele>
        <time>2013-09-23T15:06:00Z</time>
      </trkpt>
      <trkpt lat="45.12731" lon="5.89127">
        <ele>1872</ele>
        <time>2013-09-23T15:06:09Z</time>
      </trkpt>
      <trkpt lat="45.12731" lon="5.89133">
        <ele>1873</ele>
        <time>2013-09-23T15:06:14Z</time>
      </trkpt>
      <trkpt lat="45.12736" lon="5.8915">
        <ele>1874</ele>
        <time>2013-09-23T15:06:27Z</time>
      </trkpt>
      <trkpt lat="45.12739" lon="5.89159">
        <ele>1873</ele>
        <time>2013-09-23T15:06:34Z</time>
      </trkpt>
      <trkpt lat="45.12739" lon="5.89164">
        <ele>1873</ele>
        <time>2013-09-23T15:06:37Z</time>
      </trkpt>
      <trkpt lat="45.12745" lon="5.89179">
        <ele>1881</ele>
        <time>2013-09-23T15:06:49Z</time>
      </trkpt>
      <trkpt lat="45.1275" lon="5.89193">
        <ele>1887</ele>
        <time>2013-09-23T15:07:01Z</time>
      </trkpt>
      <trkpt lat="45.12755" lon="5.89204">
        <ele>1874</ele>
        <time>2013-09-23T15:07:23Z</time>
      </trkpt>
      <trkpt lat="45.12748" lon="5.89213">
        <ele>1892</ele>
        <time>2013-09-23T15:07:44Z</time>
      </trkpt>
      <trkpt lat="45.12747" lon="5.89223">
        <ele>1893</ele>
        <time>2013-09-23T15:07:53Z</time>
      </trkpt>
      <trkpt lat="45.12749" lon="5.89232">
        <ele>1895</ele>
        <time>2013-09-23T15:08:02Z</time>
      </trkpt>
      <trkpt lat="45.12749" lon="5.89237">
        <ele>1895</ele>
        <time>2013-09-23T15:08:05Z</time>
      </trkpt>
      <trkpt lat="45.12742" lon="5.8925">
        <ele>1901</ele>
        <time>2013-09-23T15:08:20Z</time>
      </trkpt>
      <trkpt lat="45.12741" lon="5.89263">
        <ele>1905</ele>
        <time>2013-09-23T15:08:32Z</time>
      </trkpt>
      <trkpt lat="45.1274" lon="5.89272">
        <ele>1907</ele>
        <time>2013-09-23T15:08:49Z</time>
      </trkpt>
      <trkpt lat="45.12741" lon="5.89288">
        <ele>1911</ele>
        <time>2013-09-23T15:09:03Z</time>
      </trkpt>
      <trkpt lat="45.12739" lon="5.89302">
        <ele>1913</ele>
        <time>2013-09-23T15:09:13Z</time>
      </trkpt>
      <trkpt lat="45.12735" lon="5.89311">
        <ele>1915</ele>
        <time>2013-09-23T15:09:22Z</time>
      </trkpt>
      <trkpt lat="45.12733" lon="5.89322">
        <ele>1916</ele>
        <time>2013-09-23T15:09:34Z</time>
      </trkpt>
      <trkpt lat="45.12733" lon="5.89323">
        <ele>1916</ele>
        <time>2013-09-23T15:09:36Z</time>
      </trkpt>
      <trkpt lat="45.12734" lon="5.89325">
        <ele>1916</ele>
        <time>2013-09-23T15:09:38Z</time>
      </trkpt>
      <trkpt lat="45.12741" lon="5.89334">
        <ele>1922</ele>
        <time>2013-09-23T15:09:50Z</time>
      </trkpt>
      <trkpt lat="45.12753" lon="5.89342">
        <ele>1917</ele>
        <time>2013-09-23T15:10:02Z</time>
      </trkpt>
      <trkpt lat="45.12767" lon="5.89366">
        <ele>1917</ele>
        <time>2013-09-23T15:10:19Z</time>
      </trkpt>
      <trkpt lat="45.12768" lon="5.89368">
        <ele>1917</ele>
        <time>2013-09-23T15:10:20Z</time>
      </trkpt>
      <trkpt lat="45.12775" lon="5.89395">
        <ele>1919</ele>
        <time>2013-09-23T15:10:34Z</time>
      </trkpt>
      <trkpt lat="45.12786" lon="5.89406">
        <ele>1918</ele>
        <time>2013-09-23T15:10:44Z</time>
      </trkpt>
      <trkpt lat="45.12786" lon="5.89414">
        <ele>1918</ele>
        <time>2013-09-23T15:10:49Z</time>
      </trkpt>
      <trkpt lat="45.12783" lon="5.89425">
        <ele>1926</ele>
        <time>2013-09-23T15:10:54Z</time>
      </trkpt>
      <trkpt lat="45.12782" lon="5.89431">
        <ele>1927</ele>
        <time>2013-09-23T15:10:57Z</time>
      </trkpt>
      <trkpt lat="45.12784" lon="5.89438">
        <ele>1927</ele>
        <time>2013-09-23T15:11:01Z</time>
      </trkpt>
      <trkpt lat="45.12786" lon="5.89445">
        <ele>1927</ele>
        <time>2013-09-23T15:11:05Z</time>
      </trkpt>
      <trkpt lat="45.12788" lon="5.89453">
        <ele>1927</ele>
        <time>2013-09-23T15:11:09Z</time>
      </trkpt>
      <trkpt lat="45.12803" lon="5.89483">
        <ele>1927</ele>
        <time>2013-09-23T15:11:25Z</time>
      </trkpt>
      <trkpt lat="45.12806" lon="5.8949">
        <ele>1927</ele>
        <time>2013-09-23T15:11:29Z</time>
      </trkpt>
      <trkpt lat="45.12809" lon="5.89503">
        <ele>1934</ele>
        <time>2013-09-23T15:11:35Z</time>
      </trkpt>
      <trkpt lat="45.12813" lon="5.89509">
        <ele>1934</ele>
        <time>2013-09-23T15:11:39Z</time>
      </trkpt>
      <trkpt lat="45.12819" lon="5.89542">
        <ele>1938</ele>
        <time>2013-09-23T15:11:53Z</time>
      </trkpt>
      <trkpt lat="45.12821" lon="5.89549">
        <ele>1938</ele>
        <time>2013-09-23T15:11:57Z</time>
      </trkpt>
      <trkpt lat="45.12825" lon="5.89551">
        <ele>1938</ele>
        <time>2013-09-23T15:12:00Z</time>
      </trkpt>
      <trkpt lat="45.12832" lon="5.89571">
        <ele>1937</ele>
        <time>2013-09-23T15:12:12Z</time>
      </trkpt>
      <trkpt lat="45.12841" lon="5.89598">
        <ele>1938</ele>
        <time>2013-09-23T15:12:27Z</time>
      </trkpt>
      <trkpt lat="45.12843" lon="5.89605">
        <ele>1938</ele>
        <time>2013-09-23T15:12:31Z</time>
      </trkpt>
      <trkpt lat="45.12848" lon="5.89626">
        <ele>1941</ele>
        <time>2013-09-23T15:12:42Z</time>
      </trkpt>
      <trkpt lat="45.12851" lon="5.89637">
        <ele>1943</ele>
        <time>2013-09-23T15:12:48Z</time>
      </trkpt>
      <trkpt lat="45.12852" lon="5.89654">
        <ele>1945</ele>
        <time>2013-09-23T15:12:59Z</time>
      </trkpt>
      <trkpt lat="45.12858" lon="5.89669">
        <ele>1955</ele>
        <time>2013-09-23T15:13:10Z</time>
      </trkpt>
      <trkpt lat="45.12861" lon="5.89674">
        <ele>1955</ele>
        <time>2013-09-23T15:13:14Z</time>
      </trkpt>
      <trkpt lat="45.12862" lon="5.89675">
        <ele>1955</ele>
        <time>2013-09-23T15:13:30Z</time>
      </trkpt>
      <trkpt lat="45.1287" lon="5.89677">
        <ele>1954</ele>
        <time>2013-09-23T15:13:42Z</time>
      </trkpt>
      <trkpt lat="45.1288" lon="5.89695">
        <ele>1955</ele>
        <time>2013-09-23T15:13:56Z</time>
      </trkpt>
      <trkpt lat="45.12887" lon="5.89703">
        <ele>1955</ele>
        <time>2013-09-23T15:14:03Z</time>
      </trkpt>
      <trkpt lat="45.12891" lon="5.89709">
        <ele>1955</ele>
        <time>2013-09-23T15:14:07Z</time>
      </trkpt>
      <trkpt lat="45.12903" lon="5.89736">
        <ele>1955</ele>
        <time>2013-09-23T15:14:22Z</time>
      </trkpt>
      <trkpt lat="45.12915" lon="5.8976">
        <ele>1959</ele>
        <time>2013-09-23T15:14:36Z</time>
      </trkpt>
      <trkpt lat="45.12926" lon="5.89774">
        <ele>1945</ele>
        <time>2013-09-23T15:14:46Z</time>
      </trkpt>
      <trkpt lat="45.12941" lon="5.89796">
        <ele>1944</ele>
        <time>2013-09-23T15:15:01Z</time>
      </trkpt>
      <trkpt lat="45.12945" lon="5.89812">
        <ele>1944</ele>
        <time>2013-09-23T15:15:10Z</time>
      </trkpt>
      <trkpt lat="45.12949" lon="5.89825">
        <ele>1945</ele>
        <time>2013-09-23T15:15:18Z</time>
      </trkpt>
      <trkpt lat="45.12961" lon="5.8986">
        <ele>1954</ele>
        <time>2013-09-23T15:15:36Z</time>
      </trkpt>
      <trkpt lat="45.12967" lon="5.89876">
        <ele>1955</ele>
        <time>2013-09-23T15:15:44Z</time>
      </trkpt>
      <trkpt lat="45.12975" lon="5.89883">
        <ele>1954</ele>
        <time>2013-09-23T15:15:51Z</time>
      </trkpt>
      <trkpt lat="45.12983" lon="5.89893">
        <ele>1953</ele>
        <time>2013-09-23T15:15:58Z</time>
      </trkpt>
      <trkpt lat="45.12997" lon="5.89917">
        <ele>1950</ele>
        <time>2013-09-23T15:16:13Z</time>
      </trkpt>
      <trkpt lat="45.13002" lon="5.89935">
        <ele>1941</ele>
        <time>2013-09-23T15:16:23Z</time>
      </trkpt>
      <trkpt lat="45.13003" lon="5.89944">
        <ele>1940</ele>
        <time>2013-09-23T15:16:27Z</time>
      </trkpt>
      <trkpt lat="45.13008" lon="5.89973">
        <ele>1941</ele>
        <time>2013-09-23T15:16:42Z</time>
      </trkpt>
      <trkpt lat="45.13011" lon="5.89991">
        <ele>1945</ele>
        <time>2013-09-23T15:16:51Z</time>
      </trkpt>
      <trkpt lat="45.13013" lon="5.89998">
        <ele>1945</ele>
        <time>2013-09-23T15:16:55Z</time>
      </trkpt>
      <trkpt lat="45.13013" lon="5.90006">
        <ele>1947</ele>
        <time>2013-09-23T15:16:59Z</time>
      </trkpt>
      <trkpt lat="45.13013" lon="5.9002">
        <ele>1944</ele>
        <time>2013-09-23T15:17:06Z</time>
      </trkpt>
      <trkpt lat="45.13013" lon="5.90024">
        <ele>1944</ele>
        <time>2013-09-23T15:17:08Z</time>
      </trkpt>
      <trkpt lat="45.13015" lon="5.9005">
        <ele>1944</ele>
        <time>2013-09-23T15:17:21Z</time>
      </trkpt>
      <trkpt lat="45.13015" lon="5.90055">
        <ele>1944</ele>
        <time>2013-09-23T15:17:23Z</time>
      </trkpt>
      <trkpt lat="45.13011" lon="5.90077">
        <ele>1950</ele>
        <time>2013-09-23T15:17:36Z</time>
      </trkpt>
      <trkpt lat="45.13009" lon="5.90088">
        <ele>1954</ele>
        <time>2013-09-23T15:17:45Z</time>
      </trkpt>
      <trkpt lat="45.1301" lon="5.90097">
        <ele>1952</ele>
        <time>2013-09-23T15:17:51Z</time>
      </trkpt>
      <trkpt lat="45.13006" lon="5.90118">
        <ele>1951</ele>
        <time>2013-09-23T15:18:02Z</time>
      </trkpt>
      <trkpt lat="45.13005" lon="5.90127">
        <ele>1952</ele>
        <time>2013-09-23T15:18:07Z</time>
      </trkpt>
      <trkpt lat="45.13005" lon="5.90143">
        <ele>1954</ele>
        <time>2013-09-23T15:18:20Z</time>
      </trkpt>
      <trkpt lat="45.13003" lon="5.90164">
        <ele>1964</ele>
        <time>2013-09-23T15:18:35Z</time>
      </trkpt>
      <trkpt lat="45.13005" lon="5.90189">
        <ele>1965</ele>
        <time>2013-09-23T15:18:54Z</time>
      </trkpt>
      <trkpt lat="45.13017" lon="5.90214">
        <ele>1967</ele>
        <time>2013-09-23T15:19:13Z</time>
      </trkpt>
      <trkpt lat="45.1303" lon="5.90232">
        <ele>1968</ele>
        <time>2013-09-23T15:19:31Z</time>
      </trkpt>
      <trkpt lat="45.13037" lon="5.90245">
        <ele>1968</ele>
        <time>2013-09-23T15:19:46Z</time>
      </trkpt>
      <trkpt lat="45.13047" lon="5.90261">
        <ele>1988</ele>
        <time>2013-09-23T15:20:06Z</time>
      </trkpt>
      <trkpt lat="45.13057" lon="5.90275">
        <ele>1989</ele>
        <time>2013-09-23T15:20:18Z</time>
      </trkpt>
      <trkpt lat="45.13071" lon="5.90286">
        <ele>1990</ele>
        <time>2013-09-23T15:20:37Z</time>
      </trkpt>
      <trkpt lat="45.13071" lon="5.90287">
        <ele>1990</ele>
        <time>2013-09-23T15:20:38Z</time>
      </trkpt>
      <trkpt lat="45.1308" lon="5.90294">
        <ele>1992</ele>
        <time>2013-09-23T15:20:44Z</time>
      </trkpt>
      <trkpt lat="45.1308" lon="5.90307">
        <ele>1996</ele>
        <time>2013-09-23T15:20:55Z</time>
      </trkpt>
      <trkpt lat="45.1308" lon="5.90308">
        <ele>1996</ele>
        <time>2013-09-23T15:20:56Z</time>
      </trkpt>
      <trkpt lat="45.13085" lon="5.90316">
        <ele>1986</ele>
        <time>2013-09-23T15:21:04Z</time>
      </trkpt>
      <trkpt lat="45.13082" lon="5.90328">
        <ele>2001</ele>
        <time>2013-09-23T15:21:18Z</time>
      </trkpt>
      <trkpt lat="45.13086" lon="5.90339">
        <ele>2002</ele>
        <time>2013-09-23T15:21:30Z</time>
      </trkpt>
      <trkpt lat="45.13088" lon="5.90352">
        <ele>2004</ele>
        <time>2013-09-23T15:21:43Z</time>
      </trkpt>
      <trkpt lat="45.13091" lon="5.90361">
        <ele>2005</ele>
        <time>2013-09-23T15:21:50Z</time>
      </trkpt>
      <trkpt lat="45.13098" lon="5.90375">
        <ele>2008</ele>
        <time>2013-09-23T15:22:03Z</time>
      </trkpt>
      <trkpt lat="45.13106" lon="5.90383">
        <ele>2008</ele>
        <time>2013-09-23T15:22:13Z</time>
      </trkpt>
      <trkpt lat="45.13107" lon="5.9039">
        <ele>2011</ele>
        <time>2013-09-23T15:22:22Z</time>
      </trkpt>
      <trkpt lat="45.13113" lon="5.90422">
        <ele>2028</ele>
        <time>2013-09-23T15:22:44Z</time>
      </trkpt>
      <trkpt lat="45.13117" lon="5.90434">
        <ele>2027</ele>
        <time>2013-09-23T15:22:55Z</time>
      </trkpt>
      <trkpt lat="45.13123" lon="5.90461">
        <ele>2026</ele>
        <time>2013-09-23T15:23:16Z</time>
      </trkpt>
      <trkpt lat="45.13125" lon="5.90468">
        <ele>2026</ele>
        <time>2013-09-23T15:23:20Z</time>
      </trkpt>
      <trkpt lat="45.13125" lon="5.90483">
        <ele>2028</ele>
        <time>2013-09-23T15:23:30Z</time>
      </trkpt>
      <trkpt lat="45.13129" lon="5.90505">
        <ele>2038</ele>
        <time>2013-09-23T15:23:44Z</time>
      </trkpt>
      <trkpt lat="45.13137" lon="5.90531">
        <ele>2037</ele>
        <time>2013-09-23T15:24:01Z</time>
      </trkpt>
      <trkpt lat="45.13143" lon="5.90555">
        <ele>2038</ele>
        <time>2013-09-23T15:24:17Z</time>
      </trkpt>
      <trkpt lat="45.13146" lon="5.90564">
        <ele>2036</ele>
        <time>2013-09-23T15:24:25Z</time>
      </trkpt>
      <trkpt lat="45.13148" lon="5.90571">
        <ele>2034</ele>
        <time>2013-09-23T15:24:35Z</time>
      </trkpt>
      <trkpt lat="45.13149" lon="5.9058">
        <ele>2033</ele>
        <time>2013-09-23T15:24:44Z</time>
      </trkpt>
      <trkpt lat="45.13149" lon="5.90587">
        <ele>2038</ele>
        <time>2013-09-23T15:24:52Z</time>
      </trkpt>
      <trkpt lat="45.13151" lon="5.9059">
        <ele>2038</ele>
        <time>2013-09-23T15:24:54Z</time>
      </trkpt>
      <trkpt lat="45.13151" lon="5.906">
        <ele>2041</ele>
        <time>2013-09-23T15:25:04Z</time>
      </trkpt>
      <trkpt lat="45.13157" lon="5.90604">
        <ele>2040</ele>
        <time>2013-09-23T15:25:14Z</time>
      </trkpt>
      <trkpt lat="45.13161" lon="5.90616">
        <ele>2042</ele>
        <time>2013-09-23T15:25:29Z</time>
      </trkpt>
      <trkpt lat="45.13165" lon="5.90629">
        <ele>2042</ele>
        <time>2013-09-23T15:25:41Z</time>
      </trkpt>
      <trkpt lat="45.13164" lon="5.90632">
        <ele>2042</ele>
        <time>2013-09-23T15:25:43Z</time>
      </trkpt>
      <trkpt lat="45.13166" lon="5.90644">
        <ele>2038</ele>
        <time>2013-09-23T15:25:56Z</time>
      </trkpt>
      <trkpt lat="45.13162" lon="5.90651">
        <ele>2036</ele>
        <time>2013-09-23T15:26:10Z</time>
      </trkpt>
      <trkpt lat="45.1316" lon="5.90656">
        <ele>2034</ele>
        <time>2013-09-23T15:26:14Z</time>
      </trkpt>
      <trkpt lat="45.13158" lon="5.90658">
        <ele>2034</ele>
        <time>2013-09-23T15:26:18Z</time>
      </trkpt>
      <trkpt lat="45.13157" lon="5.9067">
        <ele>2033</ele>
        <time>2013-09-23T15:26:37Z</time>
      </trkpt>
      <trkpt lat="45.13157" lon="5.90672">
        <ele>2034</ele>
        <time>2013-09-23T15:26:38Z</time>
      </trkpt>
      <trkpt lat="45.1316" lon="5.90686">
        <ele>2040</ele>
        <time>2013-09-23T15:26:43Z</time>
      </trkpt>
      <trkpt lat="45.13162" lon="5.90702">
        <ele>2044</ele>
        <time>2013-09-23T15:26:57Z</time>
      </trkpt>
      <trkpt lat="45.13163" lon="5.90726">
        <ele>2042</ele>
        <time>2013-09-23T15:27:14Z</time>
      </trkpt>
      <trkpt lat="45.13168" lon="5.90748">
        <ele>2020</ele>
        <time>2013-09-23T15:27:34Z</time>
      </trkpt>
      <trkpt lat="45.1317" lon="5.90767">
        <ele>2017</ele>
        <time>2013-09-23T15:27:54Z</time>
      </trkpt>
      <trkpt lat="45.13171" lon="5.90791">
        <ele>2015</ele>
        <time>2013-09-23T15:28:15Z</time>
      </trkpt>
      <trkpt lat="45.13175" lon="5.90801">
        <ele>2016</ele>
        <time>2013-09-23T15:28:27Z</time>
      </trkpt>
      <trkpt lat="45.13177" lon="5.90817">
        <ele>2019</ele>
        <time>2013-09-23T15:28:44Z</time>
      </trkpt>
      <trkpt lat="45.13175" lon="5.90833">
        <ele>2025</ele>
        <time>2013-09-23T15:29:01Z</time>
      </trkpt>
      <trkpt lat="45.13179" lon="5.90852">
        <ele>2021</ele>
        <time>2013-09-23T15:29:21Z</time>
      </trkpt>
      <trkpt lat="45.13184" lon="5.90866">
        <ele>2020</ele>
        <time>2013-09-23T15:29:37Z</time>
      </trkpt>
      <trkpt lat="45.13188" lon="5.90882">
        <ele>2019</ele>
        <time>2013-09-23T15:29:52Z</time>
      </trkpt>
      <trkpt lat="45.13189" lon="5.9089">
        <ele>2020</ele>
        <time>2013-09-23T15:29:57Z</time>
      </trkpt>
      <trkpt lat="45.13188" lon="5.90899">
        <ele>2020</ele>
        <time>2013-09-23T15:30:03Z</time>
      </trkpt>
      <trkpt lat="45.13192" lon="5.9092">
        <ele>2023</ele>
        <time>2013-09-23T15:30:16Z</time>
      </trkpt>
      <trkpt lat="45.13189" lon="5.90945">
        <ele>2023</ele>
        <time>2013-09-23T15:30:33Z</time>
      </trkpt>
      <trkpt lat="45.13188" lon="5.90948">
        <ele>2023</ele>
        <time>2013-09-23T15:30:35Z</time>
      </trkpt>
      <trkpt lat="45.13187" lon="5.90958">
        <ele>2023</ele>
        <time>2013-09-23T15:30:49Z</time>
      </trkpt>
      <trkpt lat="45.13186" lon="5.90964">
        <ele>2023</ele>
        <time>2013-09-23T15:30:54Z</time>
      </trkpt>
      <trkpt lat="45.1318" lon="5.90996">
        <ele>2026</ele>
        <time>2013-09-23T15:31:16Z</time>
      </trkpt>
      <trkpt lat="45.13182" lon="5.91005">
        <ele>2025</ele>
        <time>2013-09-23T15:31:24Z</time>
      </trkpt>
      <trkpt lat="45.13189" lon="5.91019">
        <ele>2024</ele>
        <time>2013-09-23T15:31:34Z</time>
      </trkpt>
      <trkpt lat="45.13189" lon="5.91023">
        <ele>2024</ele>
        <time>2013-09-23T15:31:37Z</time>
      </trkpt>
      <trkpt lat="45.13192" lon="5.91031">
        <ele>2023</ele>
        <time>2013-09-23T15:31:43Z</time>
      </trkpt>
      <trkpt lat="45.13193" lon="5.91033">
        <ele>2023</ele>
        <time>2013-09-23T15:31:45Z</time>
      </trkpt>
      <trkpt lat="45.1319" lon="5.91052">
        <ele>2022</ele>
        <time>2013-09-23T15:31:56Z</time>
      </trkpt>
      <trkpt lat="45.1319" lon="5.9106">
        <ele>2022</ele>
        <time>2013-09-23T15:32:01Z</time>
      </trkpt>
      <trkpt lat="45.13194" lon="5.91066">
        <ele>2022</ele>
        <time>2013-09-23T15:32:04Z</time>
      </trkpt>
      <trkpt lat="45.13194" lon="5.91072">
        <ele>2022</ele>
        <time>2013-09-23T15:32:07Z</time>
      </trkpt>
      <trkpt lat="45.13194" lon="5.91079">
        <ele>2022</ele>
        <time>2013-09-23T15:32:10Z</time>
      </trkpt>
      <trkpt lat="45.13193" lon="5.91082">
        <ele>2022</ele>
        <time>2013-09-23T15:32:12Z</time>
      </trkpt>
      <trkpt lat="45.1319" lon="5.9109">
        <ele>2018</ele>
        <time>2013-09-23T15:32:30Z</time>
      </trkpt>
      <trkpt lat="45.13187" lon="5.91105">
        <ele>2017</ele>
        <time>2013-09-23T15:32:46Z</time>
      </trkpt>
      <trkpt lat="45.13178" lon="5.91129">
        <ele>2014</ele>
        <time>2013-09-23T15:33:04Z</time>
      </trkpt>
      <trkpt lat="45.13176" lon="5.91133">
        <ele>2014</ele>
        <time>2013-09-23T15:33:07Z</time>
      </trkpt>
      <trkpt lat="45.13172" lon="5.91143">
        <ele>2012</ele>
        <time>2013-09-23T15:33:12Z</time>
      </trkpt>
      <trkpt lat="45.1316" lon="5.9116">
        <ele>2012</ele>
        <time>2013-09-23T15:33:25Z</time>
      </trkpt>
      <trkpt lat="45.1316" lon="5.91176">
        <ele>2006</ele>
        <time>2013-09-23T15:33:35Z</time>
      </trkpt>
      <trkpt lat="45.13156" lon="5.91187">
        <ele>2005</ele>
        <time>2013-09-23T15:33:44Z</time>
      </trkpt>
      <trkpt lat="45.13135" lon="5.91199">
        <ele>2004</ele>
        <time>2013-09-23T15:34:00Z</time>
      </trkpt>
      <trkpt lat="45.13131" lon="5.91201">
        <ele>2004</ele>
        <time>2013-09-23T15:34:03Z</time>
      </trkpt>
      <trkpt lat="45.13115" lon="5.91197">
        <ele>2006</ele>
        <time>2013-09-23T15:34:16Z</time>
      </trkpt>
      <trkpt lat="45.13102" lon="5.91203">
        <ele>2006</ele>
        <time>2013-09-23T15:34:29Z</time>
      </trkpt>
      <trkpt lat="45.13099" lon="5.91205">
        <ele>2005</ele>
        <time>2013-09-23T15:34:33Z</time>
      </trkpt>
      <trkpt lat="45.13097" lon="5.91207">
        <ele>2005</ele>
        <time>2013-09-23T15:34:35Z</time>
      </trkpt>
      <trkpt lat="45.13093" lon="5.91213">
        <ele>2004</ele>
        <time>2013-09-23T15:34:39Z</time>
      </trkpt>
      <trkpt lat="45.13091" lon="5.91216">
        <ele>2004</ele>
        <time>2013-09-23T15:34:41Z</time>
      </trkpt>
      <trkpt lat="45.13076" lon="5.91231">
        <ele>2009</ele>
        <time>2013-09-23T15:34:58Z</time>
      </trkpt>
      <trkpt lat="45.13075" lon="5.91232">
        <ele>2009</ele>
        <time>2013-09-23T15:34:59Z</time>
      </trkpt>
      <trkpt lat="45.13062" lon="5.91254">
        <ele>2004</ele>
        <time>2013-09-23T15:35:15Z</time>
      </trkpt>
      <trkpt lat="45.13059" lon="5.91258">
        <ele>2005</ele>
        <time>2013-09-23T15:35:19Z</time>
      </trkpt>
      <trkpt lat="45.13055" lon="5.91281">
        <ele>2006</ele>
        <time>2013-09-23T15:35:33Z</time>
      </trkpt>
      <trkpt lat="45.13054" lon="5.91284">
        <ele>2006</ele>
        <time>2013-09-23T15:35:35Z</time>
      </trkpt>
      <trkpt lat="45.13054" lon="5.91291">
        <ele>2006</ele>
        <time>2013-09-23T15:35:39Z</time>
      </trkpt>
      <trkpt lat="45.1305" lon="5.91307">
        <ele>2006</ele>
        <time>2013-09-23T15:35:55Z</time>
      </trkpt>
      <trkpt lat="45.13048" lon="5.91312">
        <ele>2006</ele>
        <time>2013-09-23T15:36:09Z</time>
      </trkpt>
      <trkpt lat="45.13044" lon="5.91327">
        <ele>2006</ele>
        <time>2013-09-23T15:36:19Z</time>
      </trkpt>
      <trkpt lat="45.13043" lon="5.91361">
        <ele>2004</ele>
        <time>2013-09-23T15:36:37Z</time>
      </trkpt>
      <trkpt lat="45.13044" lon="5.91364">
        <ele>2004</ele>
        <time>2013-09-23T15:36:39Z</time>
      </trkpt>
      <trkpt lat="45.13043" lon="5.91388">
        <ele>2004</ele>
        <time>2013-09-23T15:36:53Z</time>
      </trkpt>
      <trkpt lat="45.13042" lon="5.91393">
        <ele>2004</ele>
        <time>2013-09-23T15:36:57Z</time>
      </trkpt>
      <trkpt lat="45.1304" lon="5.91416">
        <ele>2004</ele>
        <time>2013-09-23T15:37:10Z</time>
      </trkpt>
      <trkpt lat="45.13042" lon="5.91422">
        <ele>2004</ele>
        <time>2013-09-23T15:37:14Z</time>
      </trkpt>
      <trkpt lat="45.13043" lon="5.9143">
        <ele>2004</ele>
        <time>2013-09-23T15:37:19Z</time>
      </trkpt>
      <trkpt lat="45.13038" lon="5.91455">
        <ele>2005</ele>
        <time>2013-09-23T15:37:35Z</time>
      </trkpt>
      <trkpt lat="45.13041" lon="5.91472">
        <ele>2005</ele>
        <time>2013-09-23T15:37:48Z</time>
      </trkpt>
      <trkpt lat="45.13042" lon="5.91476">
        <ele>2005</ele>
        <time>2013-09-23T15:38:07Z</time>
      </trkpt>
      <trkpt lat="45.13043" lon="5.91497">
        <ele>2005</ele>
        <time>2013-09-23T15:38:21Z</time>
      </trkpt>
      <trkpt lat="45.13044" lon="5.91503">
        <ele>2005</ele>
        <time>2013-09-23T15:38:25Z</time>
      </trkpt>
      <trkpt lat="45.13044" lon="5.9152">
        <ele>2005</ele>
        <time>2013-09-23T15:38:36Z</time>
      </trkpt>
      <trkpt lat="45.13049" lon="5.91538">
        <ele>2005</ele>
        <time>2013-09-23T15:38:50Z</time>
      </trkpt>
      <trkpt lat="45.13048" lon="5.91561">
        <ele>2005</ele>
        <time>2013-09-23T15:39:06Z</time>
      </trkpt>
      <trkpt lat="45.13047" lon="5.91571">
        <ele>2005</ele>
        <time>2013-09-23T15:39:14Z</time>
      </trkpt>
      <trkpt lat="45.13046" lon="5.91577">
        <ele>2005</ele>
        <time>2013-09-23T15:39:18Z</time>
      </trkpt>
      <trkpt lat="45.13042" lon="5.91594">
        <ele>2006</ele>
        <time>2013-09-23T15:39:31Z</time>
      </trkpt>
      <trkpt lat="45.1304" lon="5.91596">
        <ele>2006</ele>
        <time>2013-09-23T15:39:55Z</time>
      </trkpt>
      <trkpt lat="45.13043" lon="5.91595">
        <ele>2005</ele>
        <time>2013-09-23T15:40:13Z</time>
      </trkpt>
      <trkpt lat="45.13044" lon="5.91594">
        <ele>2005</ele>
        <time>2013-09-23T15:40:37Z</time>
      </trkpt>
      <trkpt lat="45.13045" lon="5.91596">
        <ele>2005</ele>
        <time>2013-09-23T15:41:01Z</time>
      </trkpt>
      <trkpt lat="45.13044" lon="5.91596">
        <ele>2005</ele>
        <time>2013-09-23T15:41:25Z</time>
      </trkpt>
      <trkpt lat="45.13043" lon="5.91596">
        <ele>2005</ele>
        <time>2013-09-23T15:41:54Z</time>
      </trkpt>
      <trkpt lat="45.13043" lon="5.91597">
        <ele>2005</ele>
        <time>2013-09-23T15:42:25Z</time>
      </trkpt>
      <trkpt lat="45.13043" lon="5.91599">
        <ele>2005</ele>
        <time>2013-09-23T15:43:14Z</time>
      </trkpt>
      <trkpt lat="45.13044" lon="5.91603">
        <ele>2005</ele>
        <time>2013-09-23T15:43:16Z</time>
      </trkpt>
      <trkpt lat="45.13034" lon="5.91635">
        <ele>2007</ele>
        <time>2013-09-23T15:43:32Z</time>
      </trkpt>
      <trkpt lat="45.13032" lon="5.91649">
        <ele>2007</ele>
        <time>2013-09-23T15:43:40Z</time>
      </trkpt>
      <trkpt lat="45.13032" lon="5.91666">
        <ele>2007</ele>
        <time>2013-09-23T15:43:49Z</time>
      </trkpt>
      <trkpt lat="45.13015" lon="5.91685">
        <ele>2008</ele>
        <time>2013-09-23T15:44:04Z</time>
      </trkpt>
      <trkpt lat="45.13001" lon="5.91701">
        <ele>2008</ele>
        <time>2013-09-23T15:44:18Z</time>
      </trkpt>
      <trkpt lat="45.13" lon="5.91705">
        <ele>2024</ele>
        <time>2013-09-23T15:44:20Z</time>
      </trkpt>
      <trkpt lat="45.12993" lon="5.91712">
        <ele>2025</ele>
        <time>2013-09-23T15:44:28Z</time>
      </trkpt>
      <trkpt lat="45.12987" lon="5.91724">
        <ele>2024</ele>
        <time>2013-09-23T15:44:38Z</time>
      </trkpt>
      <trkpt lat="45.12985" lon="5.91729">
        <ele>2023</ele>
        <time>2013-09-23T15:44:42Z</time>
      </trkpt>
      <trkpt lat="45.12978" lon="5.91737">
        <ele>2024</ele>
        <time>2013-09-23T15:44:53Z</time>
      </trkpt>
      <trkpt lat="45.12968" lon="5.91749">
        <ele>2027</ele>
        <time>2013-09-23T15:45:06Z</time>
      </trkpt>
      <trkpt lat="45.12961" lon="5.91758">
        <ele>2028</ele>
        <time>2013-09-23T15:45:16Z</time>
      </trkpt>
      <trkpt lat="45.12957" lon="5.91763">
        <ele>2029</ele>
        <time>2013-09-23T15:45:21Z</time>
      </trkpt>
      <trkpt lat="45.12951" lon="5.91777">
        <ele>2030</ele>
        <time>2013-09-23T15:45:37Z</time>
      </trkpt>
      <trkpt lat="45.12949" lon="5.91779">
        <ele>2031</ele>
        <time>2013-09-23T15:45:39Z</time>
      </trkpt>
      <trkpt lat="45.12942" lon="5.91794">
        <ele>2032</ele>
        <time>2013-09-23T15:45:52Z</time>
      </trkpt>
      <trkpt lat="45.12936" lon="5.91803">
        <ele>2033</ele>
        <time>2013-09-23T15:46:03Z</time>
      </trkpt>
      <trkpt lat="45.12932" lon="5.91812">
        <ele>2035</ele>
        <time>2013-09-23T15:46:13Z</time>
      </trkpt>
      <trkpt lat="45.12929" lon="5.91825">
        <ele>2039</ele>
        <time>2013-09-23T15:46:26Z</time>
      </trkpt>
      <trkpt lat="45.12929" lon="5.91836">
        <ele>2042</ele>
        <time>2013-09-23T15:46:35Z</time>
      </trkpt>
      <trkpt lat="45.1293" lon="5.91849">
        <ele>2041</ele>
        <time>2013-09-23T15:46:43Z</time>
      </trkpt>
      <trkpt lat="45.12926" lon="5.91864">
        <ele>2041</ele>
        <time>2013-09-23T15:46:57Z</time>
      </trkpt>
      <trkpt lat="45.12923" lon="5.91875">
        <ele>2043</ele>
        <time>2013-09-23T15:47:08Z</time>
      </trkpt>
      <trkpt lat="45.12921" lon="5.91891">
        <ele>2047</ele>
        <time>2013-09-23T15:47:21Z</time>
      </trkpt>
      <trkpt lat="45.12917" lon="5.91905">
        <ele>2054</ele>
        <time>2013-09-23T15:47:41Z</time>
      </trkpt>
      <trkpt lat="45.12913" lon="5.91916">
        <ele>2066</ele>
        <time>2013-09-23T15:47:52Z</time>
      </trkpt>
      <trkpt lat="45.1291" lon="5.91923">
        <ele>2073</ele>
        <time>2013-09-23T15:48:01Z</time>
      </trkpt>
      <trkpt lat="45.12912" lon="5.91935">
        <ele>2079</ele>
        <time>2013-09-23T15:48:17Z</time>
      </trkpt>
      <trkpt lat="45.12905" lon="5.91935">
        <ele>2081</ele>
        <time>2013-09-23T15:48:27Z</time>
      </trkpt>
      <trkpt lat="45.12904" lon="5.91936">
        <ele>2082</ele>
        <time>2013-09-23T15:48:43Z</time>
      </trkpt>
      <trkpt lat="45.12903" lon="5.91936">
        <ele>2082</ele>
        <time>2013-09-23T15:49:00Z</time>
      </trkpt>
      <trkpt lat="45.12899" lon="5.91934">
        <ele>2083</ele>
        <time>2013-09-23T15:49:12Z</time>
      </trkpt>
      <trkpt lat="45.12895" lon="5.91933">
        <ele>2084</ele>
        <time>2013-09-23T15:49:31Z</time>
      </trkpt>
      <trkpt lat="45.12889" lon="5.91934">
        <ele>2086</ele>
        <time>2013-09-23T15:49:47Z</time>
      </trkpt>
      <trkpt lat="45.12884" lon="5.91943">
        <ele>2089</ele>
        <time>2013-09-23T15:50:02Z</time>
      </trkpt>
      <trkpt lat="45.12884" lon="5.91956">
        <ele>2091</ele>
        <time>2013-09-23T15:50:18Z</time>
      </trkpt>
      <trkpt lat="45.12876" lon="5.91965">
        <ele>2093</ele>
        <time>2013-09-23T15:50:29Z</time>
      </trkpt>
      <trkpt lat="45.12866" lon="5.91973">
        <ele>2095</ele>
        <time>2013-09-23T15:50:45Z</time>
      </trkpt>
      <trkpt lat="45.12863" lon="5.91977">
        <ele>2096</ele>
        <time>2013-09-23T15:51:04Z</time>
      </trkpt>
      <trkpt lat="45.1286" lon="5.91992">
        <ele>2097</ele>
        <time>2013-09-23T15:51:22Z</time>
      </trkpt>
      <trkpt lat="45.1286" lon="5.91994">
        <ele>2097</ele>
        <time>2013-09-23T15:51:26Z</time>
      </trkpt>
      <trkpt lat="45.12864" lon="5.92006">
        <ele>2113</ele>
        <time>2013-09-23T15:51:41Z</time>
      </trkpt>
      <trkpt lat="45.12866" lon="5.92017">
        <ele>2115</ele>
        <time>2013-09-23T15:51:54Z</time>
      </trkpt>
      <trkpt lat="45.1286" lon="5.92023">
        <ele>2116</ele>
        <time>2013-09-23T15:52:06Z</time>
      </trkpt>
      <trkpt lat="45.12854" lon="5.92029">
        <ele>2117</ele>
        <time>2013-09-23T15:52:27Z</time>
      </trkpt>
      <trkpt lat="45.12856" lon="5.92035">
        <ele>2119</ele>
        <time>2013-09-23T15:52:39Z</time>
      </trkpt>
      <trkpt lat="45.12861" lon="5.92044">
        <ele>2121</ele>
        <time>2013-09-23T15:52:51Z</time>
      </trkpt>
      <trkpt lat="45.12854" lon="5.92049">
        <ele>2122</ele>
        <time>2013-09-23T15:53:05Z</time>
      </trkpt>
      <trkpt lat="45.12854" lon="5.92054">
        <ele>2124</ele>
        <time>2013-09-23T15:53:18Z</time>
      </trkpt>
      <trkpt lat="45.12858" lon="5.92057">
        <ele>2124</ele>
        <time>2013-09-23T15:53:31Z</time>
      </trkpt>
      <trkpt lat="45.12861" lon="5.9206">
        <ele>2124</ele>
        <time>2013-09-23T15:53:57Z</time>
      </trkpt>
      <trkpt lat="45.12863" lon="5.92067">
        <ele>2126</ele>
        <time>2013-09-23T15:54:10Z</time>
      </trkpt>
      <trkpt lat="45.12858" lon="5.92078">
        <ele>2128</ele>
        <time>2013-09-23T15:54:22Z</time>
      </trkpt>
      <trkpt lat="45.12855" lon="5.92087">
        <ele>2150</ele>
        <time>2013-09-23T15:54:34Z</time>
      </trkpt>
      <trkpt lat="45.12851" lon="5.92093">
        <ele>2150</ele>
        <time>2013-09-23T15:54:47Z</time>
      </trkpt>
      <trkpt lat="45.12849" lon="5.92102">
        <ele>2152</ele>
        <time>2013-09-23T15:54:59Z</time>
      </trkpt>
      <trkpt lat="45.12846" lon="5.92111">
        <ele>2155</ele>
        <time>2013-09-23T15:55:13Z</time>
      </trkpt>
      <trkpt lat="45.12843" lon="5.92121">
        <ele>2158</ele>
        <time>2013-09-23T15:55:27Z</time>
      </trkpt>
      <trkpt lat="45.12837" lon="5.9214">
        <ele>2164</ele>
        <time>2013-09-23T15:55:45Z</time>
      </trkpt>
      <trkpt lat="45.12827" lon="5.92151">
        <ele>2161</ele>
        <time>2013-09-23T15:56:01Z</time>
      </trkpt>
      <trkpt lat="45.12825" lon="5.92157">
        <ele>2164</ele>
        <time>2013-09-23T15:56:13Z</time>
      </trkpt>
      <trkpt lat="45.12822" lon="5.92167">
        <ele>2174</ele>
        <time>2013-09-23T15:56:29Z</time>
      </trkpt>
      <trkpt lat="45.12825" lon="5.92185">
        <ele>2175</ele>
        <time>2013-09-23T15:56:47Z</time>
      </trkpt>
      <trkpt lat="45.12827" lon="5.92203">
        <ele>2177</ele>
        <time>2013-09-23T15:57:03Z</time>
      </trkpt>
      <trkpt lat="45.12826" lon="5.92206">
        <ele>2177</ele>
        <time>2013-09-23T15:57:05Z</time>
      </trkpt>
      <trkpt lat="45.12827" lon="5.92216">
        <ele>2178</ele>
        <time>2013-09-23T15:57:15Z</time>
      </trkpt>
      <trkpt lat="45.12827" lon="5.92233">
        <ele>2181</ele>
        <time>2013-09-23T15:57:29Z</time>
      </trkpt>
      <trkpt lat="45.12828" lon="5.92243">
        <ele>2183</ele>
        <time>2013-09-23T15:57:48Z</time>
      </trkpt>
      <trkpt lat="45.12829" lon="5.92257">
        <ele>2189</ele>
        <time>2013-09-23T15:58:04Z</time>
      </trkpt>
      <trkpt lat="45.12829" lon="5.92261">
        <ele>2190</ele>
        <time>2013-09-23T15:58:15Z</time>
      </trkpt>
      <trkpt lat="45.12832" lon="5.92271">
        <ele>2192</ele>
        <time>2013-09-23T15:58:31Z</time>
      </trkpt>
      <trkpt lat="45.12838" lon="5.92278">
        <ele>2208</ele>
        <time>2013-09-23T15:58:46Z</time>
      </trkpt>
      <trkpt lat="45.12843" lon="5.92287">
        <ele>2211</ele>
        <time>2013-09-23T15:59:02Z</time>
      </trkpt>
      <trkpt lat="45.12846" lon="5.92288">
        <ele>2212</ele>
        <time>2013-09-23T15:59:15Z</time>
      </trkpt>
      <trkpt lat="45.12849" lon="5.92296">
        <ele>2214</ele>
        <time>2013-09-23T15:59:30Z</time>
      </trkpt>
      <trkpt lat="45.12849" lon="5.92305">
        <ele>2215</ele>
        <time>2013-09-23T15:59:53Z</time>
      </trkpt>
      <trkpt lat="45.1285" lon="5.92312">
        <ele>2216</ele>
        <time>2013-09-23T16:00:07Z</time>
      </trkpt>
      <trkpt lat="45.1285" lon="5.92322">
        <ele>2216</ele>
        <time>2013-09-23T16:00:24Z</time>
      </trkpt>
      <trkpt lat="45.12853" lon="5.9233">
        <ele>2216</ele>
        <time>2013-09-23T16:00:37Z</time>
      </trkpt>
      <trkpt lat="45.12856" lon="5.92336">
        <ele>2231</ele>
        <time>2013-09-23T16:00:48Z</time>
      </trkpt>
      <trkpt lat="45.12857" lon="5.9234">
        <ele>2233</ele>
        <time>2013-09-23T16:00:59Z</time>
      </trkpt>
      <trkpt lat="45.12861" lon="5.92346">
        <ele>2236</ele>
        <time>2013-09-23T16:01:19Z</time>
      </trkpt>
      <trkpt lat="45.12863" lon="5.9235">
        <ele>2238</ele>
        <time>2013-09-23T16:01:38Z</time>
      </trkpt>
      <trkpt lat="45.12864" lon="5.92362">
        <ele>2240</ele>
        <time>2013-09-23T16:01:54Z</time>
      </trkpt>
      <trkpt lat="45.12866" lon="5.92372">
        <ele>2242</ele>
        <time>2013-09-23T16:02:07Z</time>
      </trkpt>
      <trkpt lat="45.12867" lon="5.92382">
        <ele>2244</ele>
        <time>2013-09-23T16:02:27Z</time>
      </trkpt>
      <trkpt lat="45.1287" lon="5.9239">
        <ele>2246</ele>
        <time>2013-09-23T16:02:38Z</time>
      </trkpt>
      <trkpt lat="45.12874" lon="5.92397">
        <ele>2247</ele>
        <time>2013-09-23T16:02:49Z</time>
      </trkpt>
      <trkpt lat="45.12869" lon="5.92407">
        <ele>2246</ele>
        <time>2013-09-23T16:03:00Z</time>
      </trkpt>
      <trkpt lat="45.12866" lon="5.92421">
        <ele>2256</ele>
        <time>2013-09-23T16:03:15Z</time>
      </trkpt>
      <trkpt lat="45.12862" lon="5.92432">
        <ele>2256</ele>
        <time>2013-09-23T16:03:32Z</time>
      </trkpt>
      <trkpt lat="45.12859" lon="5.92441">
        <ele>2257</ele>
        <time>2013-09-23T16:03:46Z</time>
      </trkpt>
      <trkpt lat="45.12861" lon="5.92446">
        <ele>2258</ele>
        <time>2013-09-23T16:03:57Z</time>
      </trkpt>
      <trkpt lat="45.12862" lon="5.92458">
        <ele>2260</ele>
        <time>2013-09-23T16:04:13Z</time>
      </trkpt>
      <trkpt lat="45.12863" lon="5.92466">
        <ele>2262</ele>
        <time>2013-09-23T16:04:30Z</time>
      </trkpt>
      <trkpt lat="45.12867" lon="5.92475">
        <ele>2263</ele>
        <time>2013-09-23T16:04:43Z</time>
      </trkpt>
      <trkpt lat="45.1287" lon="5.92493">
        <ele>2265</ele>
        <time>2013-09-23T16:05:03Z</time>
      </trkpt>
      <trkpt lat="45.12875" lon="5.92503">
        <ele>2273</ele>
        <time>2013-09-23T16:05:14Z</time>
      </trkpt>
      <trkpt lat="45.12878" lon="5.92527">
        <ele>2274</ele>
        <time>2013-09-23T16:05:35Z</time>
      </trkpt>
      <trkpt lat="45.12878" lon="5.92548">
        <ele>2274</ele>
        <time>2013-09-23T16:05:56Z</time>
      </trkpt>
      <trkpt lat="45.12871" lon="5.92561">
        <ele>2272</ele>
        <time>2013-09-23T16:06:15Z</time>
      </trkpt>
      <trkpt lat="45.12873" lon="5.92556">
        <ele>2273</ele>
        <time>2013-09-23T16:06:46Z</time>
      </trkpt>
      <trkpt lat="45.12873" lon="5.9257">
        <ele>2273</ele>
        <time>2013-09-23T16:07:06Z</time>
      </trkpt>
      <trkpt lat="45.12872" lon="5.9257">
        <ele>2273</ele>
        <time>2013-09-23T16:08:30Z</time>
      </trkpt>
      <trkpt lat="45.12875" lon="5.92581">
        <ele>2273</ele>
        <time>2013-09-23T16:09:10Z</time>
      </trkpt>
      <trkpt lat="45.12883" lon="5.9259">
        <ele>2281</ele>
        <time>2013-09-23T16:09:27Z</time>
      </trkpt>
      <trkpt lat="45.12887" lon="5.92607">
        <ele>2282</ele>
        <time>2013-09-23T16:09:45Z</time>
      </trkpt>
      <trkpt lat="45.12894" lon="5.92618">
        <ele>2284</ele>
        <time>2013-09-23T16:10:04Z</time>
      </trkpt>
      <trkpt lat="45.12899" lon="5.92626">
        <ele>2286</ele>
        <time>2013-09-23T16:10:20Z</time>
      </trkpt>
      <trkpt lat="45.12901" lon="5.92635">
        <ele>2288</ele>
        <time>2013-09-23T16:10:34Z</time>
      </trkpt>
      <trkpt lat="45.12901" lon="5.92645">
        <ele>2290</ele>
        <time>2013-09-23T16:10:49Z</time>
      </trkpt>
      <trkpt lat="45.12907" lon="5.92642">
        <ele>2291</ele>
        <time>2013-09-23T16:11:04Z</time>
      </trkpt>
      <trkpt lat="45.12915" lon="5.92641">
        <ele>2292</ele>
        <time>2013-09-23T16:11:19Z</time>
      </trkpt>
      <trkpt lat="45.12918" lon="5.92651">
        <ele>2311</ele>
        <time>2013-09-23T16:11:32Z</time>
      </trkpt>
      <trkpt lat="45.12921" lon="5.92657">
        <ele>2311</ele>
        <time>2013-09-23T16:11:53Z</time>
      </trkpt>
      <trkpt lat="45.12922" lon="5.92665">
        <ele>2310</ele>
        <time>2013-09-23T16:12:07Z</time>
      </trkpt>
      <trkpt lat="45.1292" lon="5.92674">
        <ele>2315</ele>
        <time>2013-09-23T16:12:28Z</time>
      </trkpt>
      <trkpt lat="45.12916" lon="5.92692">
        <ele>2304</ele>
        <time>2013-09-23T16:12:46Z</time>
      </trkpt>
      <trkpt lat="45.12916" lon="5.92708">
        <ele>2306</ele>
        <time>2013-09-23T16:13:01Z</time>
      </trkpt>
      <trkpt lat="45.12916" lon="5.92721">
        <ele>2310</ele>
        <time>2013-09-23T16:13:14Z</time>
      </trkpt>
      <trkpt lat="45.12914" lon="5.92733">
        <ele>2315</ele>
        <time>2013-09-23T16:13:25Z</time>
      </trkpt>
      <trkpt lat="45.12914" lon="5.92747">
        <ele>2325</ele>
        <time>2013-09-23T16:13:39Z</time>
      </trkpt>
      <trkpt lat="45.12913" lon="5.92761">
        <ele>2327</ele>
        <time>2013-09-23T16:13:55Z</time>
      </trkpt>
      <trkpt lat="45.1291" lon="5.92771">
        <ele>2326</ele>
        <time>2013-09-23T16:14:15Z</time>
      </trkpt>
      <trkpt lat="45.12911" lon="5.92789">
        <ele>2327</ele>
        <time>2013-09-23T16:14:32Z</time>
      </trkpt>
      <trkpt lat="45.12911" lon="5.92794">
        <ele>2328</ele>
        <time>2013-09-23T16:14:54Z</time>
      </trkpt>
      <trkpt lat="45.12911" lon="5.92803">
        <ele>2330</ele>
        <time>2013-09-23T16:15:06Z</time>
      </trkpt>
      <trkpt lat="45.1291" lon="5.92814">
        <ele>2332</ele>
        <time>2013-09-23T16:15:18Z</time>
      </trkpt>
      <trkpt lat="45.12909" lon="5.92824">
        <ele>2336</ele>
        <time>2013-09-23T16:15:29Z</time>
      </trkpt>
      <trkpt lat="45.12907" lon="5.92833">
        <ele>2338</ele>
        <time>2013-09-23T16:15:44Z</time>
      </trkpt>
      <trkpt lat="45.1291" lon="5.92837">
        <ele>2345</ele>
        <time>2013-09-23T16:16:04Z</time>
      </trkpt>
      <trkpt lat="45.12911" lon="5.92847">
        <ele>2345</ele>
        <time>2013-09-23T16:16:20Z</time>
      </trkpt>
      <trkpt lat="45.12912" lon="5.92853">
        <ele>2345</ele>
        <time>2013-09-23T16:16:38Z</time>
      </trkpt>
      <trkpt lat="45.1291" lon="5.9287">
        <ele>2347</ele>
        <time>2013-09-23T16:16:56Z</time>
      </trkpt>
      <trkpt lat="45.12912" lon="5.92879">
        <ele>2349</ele>
        <time>2013-09-23T16:17:06Z</time>
      </trkpt>
      <trkpt lat="45.12913" lon="5.92882">
        <ele>2350</ele>
        <time>2013-09-23T16:17:24Z</time>
      </trkpt>
      <trkpt lat="45.12914" lon="5.92893">
        <ele>2352</ele>
        <time>2013-09-23T16:17:35Z</time>
      </trkpt>
      <trkpt lat="45.12913" lon="5.92897">
        <ele>2354</ele>
        <time>2013-09-23T16:17:56Z</time>
      </trkpt>
      <trkpt lat="45.12902" lon="5.92897">
        <ele>2352</ele>
        <time>2013-09-23T16:18:10Z</time>
      </trkpt>
      <trkpt lat="45.12888" lon="5.92902">
        <ele>2350</ele>
        <time>2013-09-23T16:18:28Z</time>
      </trkpt>
      <trkpt lat="45.12883" lon="5.92912">
        <ele>2350</ele>
        <time>2013-09-23T16:18:41Z</time>
      </trkpt>
      <trkpt lat="45.12877" lon="5.92917">
        <ele>2365</ele>
        <time>2013-09-23T16:19:02Z</time>
      </trkpt>
      <trkpt lat="45.12873" lon="5.92923">
        <ele>2365</ele>
        <time>2013-09-23T16:19:15Z</time>
      </trkpt>
      <trkpt lat="45.12867" lon="5.92932">
        <ele>2365</ele>
        <time>2013-09-23T16:19:30Z</time>
      </trkpt>
      <trkpt lat="45.1286" lon="5.92939">
        <ele>2365</ele>
        <time>2013-09-23T16:19:52Z</time>
      </trkpt>
      <trkpt lat="45.1286" lon="5.92947">
        <ele>2367</ele>
        <time>2013-09-23T16:20:09Z</time>
      </trkpt>
      <trkpt lat="45.12859" lon="5.92954">
        <ele>2369</ele>
        <time>2013-09-23T16:20:32Z</time>
      </trkpt>
      <trkpt lat="45.12863" lon="5.92963">
        <ele>2371</ele>
        <time>2013-09-23T16:20:47Z</time>
      </trkpt>
      <trkpt lat="45.12865" lon="5.92972">
        <ele>2373</ele>
        <time>2013-09-23T16:21:00Z</time>
      </trkpt>
      <trkpt lat="45.12867" lon="5.92977">
        <ele>2374</ele>
        <time>2013-09-23T16:21:17Z</time>
      </trkpt>
      <trkpt lat="45.12864" lon="5.92986">
        <ele>2376</ele>
        <time>2013-09-23T16:21:31Z</time>
      </trkpt>
      <trkpt lat="45.12863" lon="5.92992">
        <ele>2377</ele>
        <time>2013-09-23T16:21:43Z</time>
      </trkpt>
      <trkpt lat="45.1286" lon="5.92997">
        <ele>2378</ele>
        <time>2013-09-23T16:21:56Z</time>
      </trkpt>
      <trkpt lat="45.1286" lon="5.93005">
        <ele>2393</ele>
        <time>2013-09-23T16:22:17Z</time>
      </trkpt>
      <trkpt lat="45.12859" lon="5.93014">
        <ele>2394</ele>
        <time>2013-09-23T16:22:33Z</time>
      </trkpt>
      <trkpt lat="45.12857" lon="5.93024">
        <ele>2395</ele>
        <time>2013-09-23T16:22:55Z</time>
      </trkpt>
      <trkpt lat="45.12857" lon="5.93036">
        <ele>2397</ele>
        <time>2013-09-23T16:23:09Z</time>
      </trkpt>
      <trkpt lat="45.12856" lon="5.93043">
        <ele>2398</ele>
        <time>2013-09-23T16:23:23Z</time>
      </trkpt>
      <trkpt lat="45.12854" lon="5.93052">
        <ele>2399</ele>
        <time>2013-09-23T16:23:36Z</time>
      </trkpt>
      <trkpt lat="45.12851" lon="5.93062">
        <ele>2401</ele>
        <time>2013-09-23T16:23:51Z</time>
      </trkpt>
      <trkpt lat="45.12844" lon="5.9307">
        <ele>2403</ele>
        <time>2013-09-23T16:24:06Z</time>
      </trkpt>
      <trkpt lat="45.12834" lon="5.93085">
        <ele>2408</ele>
        <time>2013-09-23T16:24:27Z</time>
      </trkpt>
      <trkpt lat="45.12833" lon="5.93087">
        <ele>2407</ele>
        <time>2013-09-23T16:24:49Z</time>
      </trkpt>
      <trkpt lat="45.12826" lon="5.93083">
        <ele>2408</ele>
        <time>2013-09-23T16:25:17Z</time>
      </trkpt>
      <trkpt lat="45.12812" lon="5.93084">
        <ele>2399</ele>
        <time>2013-09-23T16:25:33Z</time>
      </trkpt>
      <trkpt lat="45.12801" lon="5.93081">
        <ele>2407</ele>
        <time>2013-09-23T16:25:53Z</time>
      </trkpt>
      <trkpt lat="45.12793" lon="5.93078">
        <ele>2407</ele>
        <time>2013-09-23T16:26:07Z</time>
      </trkpt>
      <trkpt lat="45.12783" lon="5.93071">
        <ele>2407</ele>
        <time>2013-09-23T16:26:22Z</time>
      </trkpt>
      <trkpt lat="45.12776" lon="5.93068">
        <ele>2407</ele>
        <time>2013-09-23T16:26:35Z</time>
      </trkpt>
      <trkpt lat="45.12768" lon="5.93061">
        <ele>2407</ele>
        <time>2013-09-23T16:26:49Z</time>
      </trkpt>
      <trkpt lat="45.1276" lon="5.93048">
        <ele>2407</ele>
        <time>2013-09-23T16:27:07Z</time>
      </trkpt>
      <trkpt lat="45.12753" lon="5.93044">
        <ele>2407</ele>
        <time>2013-09-23T16:27:28Z</time>
      </trkpt>
      <trkpt lat="45.12754" lon="5.93044">
        <ele>2407</ele>
        <time>2013-09-23T16:27:56Z</time>
      </trkpt>
      <trkpt lat="45.12755" lon="5.93045">
        <ele>2407</ele>
        <time>2013-09-23T16:28:17Z</time>
      </trkpt>
      <trkpt lat="45.12755" lon="5.93045">
        <ele>2407</ele>
        <time>2013-09-23T16:29:06Z</time>
      </trkpt>
      <trkpt lat="45.12759" lon="5.93047">
        <ele>2407</ele>
        <time>2013-09-23T16:30:22Z</time>
      </trkpt>
      <trkpt lat="45.12765" lon="5.93046">
        <ele>2407</ele>
        <time>2013-09-23T16:30:46Z</time>
      </trkpt>
      <trkpt lat="45.12766" lon="5.93046">
        <ele>2407</ele>
        <time>2013-09-23T16:31:29Z</time>
      </trkpt>
      <trkpt lat="45.12767" lon="5.93047">
        <ele>2407</ele>
        <time>2013-09-23T16:31:45Z</time>
      </trkpt>
      <trkpt lat="45.12776" lon="5.93059">
        <ele>2407</ele>
        <time>2013-09-23T16:31:55Z</time>
      </trkpt>
      <trkpt lat="45.12777" lon="5.93063">
        <ele>2407</ele>
        <time>2013-09-23T16:32:17Z</time>
      </trkpt>
      <trkpt lat="45.12777" lon="5.93063">
        <ele>2407</ele>
        <time>2013-09-23T16:33:17Z</time>
      </trkpt>
      <trkpt lat="45.12779" lon="5.93064">
        <ele>2407</ele>
        <time>2013-09-23T16:33:20Z</time>
      </trkpt>
      <trkpt lat="45.12784" lon="5.93065">
        <ele>2406</ele>
        <time>2013-09-23T16:33:24Z</time>
      </trkpt>
      <trkpt lat="45.12795" lon="5.93075">
        <ele>2406</ele>
        <time>2013-09-23T16:33:35Z</time>
      </trkpt>
      <trkpt lat="45.12798" lon="5.93077">
        <ele>2406</ele>
        <time>2013-09-23T16:33:50Z</time>
      </trkpt>
      <trkpt lat="45.12809" lon="5.93084">
        <ele>2399</ele>
        <time>2013-09-23T16:34:05Z</time>
      </trkpt>
      <trkpt lat="45.12811" lon="5.93085">
        <ele>2399</ele>
        <time>2013-09-23T16:34:07Z</time>
      </trkpt>
      <trkpt lat="45.12825" lon="5.93086">
        <ele>2404</ele>
        <time>2013-09-23T16:34:18Z</time>
      </trkpt>
      <trkpt lat="45.1283" lon="5.93087">
        <ele>2406</ele>
        <time>2013-09-23T16:34:22Z</time>
      </trkpt>
      <trkpt lat="45.12848" lon="5.93087">
        <ele>2404</ele>
        <time>2013-09-23T16:34:38Z</time>
      </trkpt>
      <trkpt lat="45.12862" lon="5.93089">
        <ele>2403</ele>
        <time>2013-09-23T16:34:56Z</time>
      </trkpt>
      <trkpt lat="45.12878" lon="5.9309">
        <ele>2403</ele>
        <time>2013-09-23T16:35:12Z</time>
      </trkpt>
      <trkpt lat="45.12884" lon="5.93096">
        <ele>2403</ele>
        <time>2013-09-23T16:35:24Z</time>
      </trkpt>
      <trkpt lat="45.12885" lon="5.931">
        <ele>2403</ele>
        <time>2013-09-23T16:35:34Z</time>
      </trkpt>
      <trkpt lat="45.1289" lon="5.93103">
        <ele>2403</ele>
        <time>2013-09-23T16:35:46Z</time>
      </trkpt>
      <trkpt lat="45.12896" lon="5.93109">
        <ele>2403</ele>
        <time>2013-09-23T16:36:06Z</time>
      </trkpt>
      <trkpt lat="45.12899" lon="5.93121">
        <ele>2403</ele>
        <time>2013-09-23T16:36:18Z</time>
      </trkpt>
      <trkpt lat="45.12901" lon="5.93142">
        <ele>2403</ele>
        <time>2013-09-23T16:36:33Z</time>
      </trkpt>
      <trkpt lat="45.129" lon="5.93146">
        <ele>2403</ele>
        <time>2013-09-23T16:36:37Z</time>
      </trkpt>
      <trkpt lat="45.12895" lon="5.93158">
        <ele>2403</ele>
        <time>2013-09-23T16:36:51Z</time>
      </trkpt>
      <trkpt lat="45.12896" lon="5.93154">
        <ele>2403</ele>
        <time>2013-09-23T16:37:18Z</time>
      </trkpt>
      <trkpt lat="45.12897" lon="5.9315">
        <ele>2403</ele>
        <time>2013-09-23T16:37:21Z</time>
      </trkpt>
      <trkpt lat="45.12907" lon="5.93128">
        <ele>2403</ele>
        <time>2013-09-23T16:37:38Z</time>
      </trkpt>
      <trkpt lat="45.12914" lon="5.93122">
        <ele>2404</ele>
        <time>2013-09-23T16:37:53Z</time>
      </trkpt>
      <trkpt lat="45.12918" lon="5.93121">
        <ele>2413</ele>
        <time>2013-09-23T16:37:57Z</time>
      </trkpt>
      <trkpt lat="45.12932" lon="5.93113">
        <ele>2413</ele>
        <time>2013-09-23T16:38:11Z</time>
      </trkpt>
      <trkpt lat="45.12938" lon="5.93104">
        <ele>2413</ele>
        <time>2013-09-23T16:38:27Z</time>
      </trkpt>
      <trkpt lat="45.12943" lon="5.93105">
        <ele>2413</ele>
        <time>2013-09-23T16:38:55Z</time>
      </trkpt>
      <trkpt lat="45.12949" lon="5.931">
        <ele>2414</ele>
        <time>2013-09-23T16:39:05Z</time>
      </trkpt>
      <trkpt lat="45.12957" lon="5.93098">
        <ele>2414</ele>
        <time>2013-09-23T16:39:17Z</time>
      </trkpt>
      <trkpt lat="45.12962" lon="5.93098">
        <ele>2415</ele>
        <time>2013-09-23T16:39:22Z</time>
      </trkpt>
      <trkpt lat="45.1297" lon="5.93099">
        <ele>2415</ele>
        <time>2013-09-23T16:39:38Z</time>
      </trkpt>
      <trkpt lat="45.12989" lon="5.93108">
        <ele>2416</ele>
        <time>2013-09-23T16:40:02Z</time>
      </trkpt>
      <trkpt lat="45.12999" lon="5.93103">
        <ele>2417</ele>
        <time>2013-09-23T16:40:16Z</time>
      </trkpt>
      <trkpt lat="45.13019" lon="5.93098">
        <ele>2420</ele>
        <time>2013-09-23T16:40:35Z</time>
      </trkpt>
      <trkpt lat="45.13029" lon="5.93098">
        <ele>2420</ele>
        <time>2013-09-23T16:40:45Z</time>
      </trkpt>
      <trkpt lat="45.13046" lon="5.93096">
        <ele>2421</ele>
        <time>2013-09-23T16:41:02Z</time>
      </trkpt>
      <trkpt lat="45.13048" lon="5.93097">
        <ele>2421</ele>
        <time>2013-09-23T16:41:04Z</time>
      </trkpt>
      <trkpt lat="45.13052" lon="5.93096">
        <ele>2421</ele>
        <time>2013-09-23T16:41:22Z</time>
      </trkpt>
      <trkpt lat="45.13054" lon="5.93095">
        <ele>2421</ele>
        <time>2013-09-23T16:41:25Z</time>
      </trkpt>
      <trkpt lat="45.13071" lon="5.93094">
        <ele>2423</ele>
        <time>2013-09-23T16:41:43Z</time>
      </trkpt>
      <trkpt lat="45.13081" lon="5.93094">
        <ele>2423</ele>
        <time>2013-09-23T16:41:58Z</time>
      </trkpt>
      <trkpt lat="45.13086" lon="5.93091">
        <ele>2421</ele>
        <time>2013-09-23T16:42:10Z</time>
      </trkpt>
      <trkpt lat="45.13092" lon="5.93104">
        <ele>2417</ele>
        <time>2013-09-23T16:42:29Z</time>
      </trkpt>
      <trkpt lat="45.13096" lon="5.93118">
        <ele>2414</ele>
        <time>2013-09-23T16:42:44Z</time>
      </trkpt>
      <trkpt lat="45.13102" lon="5.93134">
        <ele>2413</ele>
        <time>2013-09-23T16:43:05Z</time>
      </trkpt>
      <trkpt lat="45.13107" lon="5.93128">
        <ele>2413</ele>
        <time>2013-09-23T16:43:24Z</time>
      </trkpt>
      <trkpt lat="45.13105" lon="5.93131">
        <ele>2413</ele>
        <time>2013-09-23T16:43:29Z</time>
      </trkpt>
      <trkpt lat="45.13096" lon="5.9313">
        <ele>2413</ele>
        <time>2013-09-23T16:43:42Z</time>
      </trkpt>
      <trkpt lat="45.13102" lon="5.93124">
        <ele>2413</ele>
        <time>2013-09-23T16:43:58Z</time>
      </trkpt>
      <trkpt lat="45.13106" lon="5.9312">
        <ele>2413</ele>
        <time>2013-09-23T16:44:15Z</time>
      </trkpt>
      <trkpt lat="45.13104" lon="5.93106">
        <ele>2415</ele>
        <time>2013-09-23T16:44:31Z</time>
      </trkpt>
      <trkpt lat="45.13107" lon="5.93098">
        <ele>2415</ele>
        <time>2013-09-23T16:44:49Z</time>
      </trkpt>
      <trkpt lat="45.13097" lon="5.93079">
        <ele>2414</ele>
        <time>2013-09-23T16:45:09Z</time>
      </trkpt>
      <trkpt lat="45.13094" lon="5.93061">
        <ele>2409</ele>
        <time>2013-09-23T16:45:23Z</time>
      </trkpt>
      <trkpt lat="45.13091" lon="5.93052">
        <ele>2408</ele>
        <time>2013-09-23T16:45:39Z</time>
      </trkpt>
      <trkpt lat="45.13087" lon="5.93038">
        <ele>2406</ele>
        <time>2013-09-23T16:46:00Z</time>
      </trkpt>
      <trkpt lat="45.13084" lon="5.93016">
        <ele>2407</ele>
        <time>2013-09-23T16:46:17Z</time>
      </trkpt>
      <trkpt lat="45.1308" lon="5.9301">
        <ele>2415</ele>
        <time>2013-09-23T16:46:39Z</time>
      </trkpt>
      <trkpt lat="45.13087" lon="5.93002">
        <ele>2411</ele>
        <time>2013-09-23T16:46:57Z</time>
      </trkpt>
      <trkpt lat="45.1309" lon="5.93004">
        <ele>2409</ele>
        <time>2013-09-23T16:47:23Z</time>
      </trkpt>
      <trkpt lat="45.13091" lon="5.93003">
        <ele>2409</ele>
        <time>2013-09-23T16:47:55Z</time>
      </trkpt>
      <trkpt lat="45.13091" lon="5.93003">
        <ele>2409</ele>
        <time>2013-09-23T16:48:29Z</time>
      </trkpt>
      <trkpt lat="45.13089" lon="5.93008">
        <ele>2409</ele>
        <time>2013-09-23T16:48:55Z</time>
      </trkpt>
      <trkpt lat="45.13092" lon="5.93008">
        <ele>2407</ele>
        <time>2013-09-23T16:49:19Z</time>
      </trkpt>
      <trkpt lat="45.13097" lon="5.93012">
        <ele>2405</ele>
        <time>2013-09-23T16:49:40Z</time>
      </trkpt>
      <trkpt lat="45.13097" lon="5.93012">
        <ele>2405</ele>
        <time>2013-09-23T16:50:09Z</time>
      </trkpt>
      <trkpt lat="45.131" lon="5.9301">
        <ele>2404</ele>
        <time>2013-09-23T16:50:36Z</time>
      </trkpt>
      <trkpt lat="45.13103" lon="5.93013">
        <ele>2403</ele>
        <time>2013-09-23T16:51:03Z</time>
      </trkpt>
      <trkpt lat="45.13112" lon="5.93019">
        <ele>2400</ele>
        <time>2013-09-23T16:51:20Z</time>
      </trkpt>
      <trkpt lat="45.13106" lon="5.93015">
        <ele>2402</ele>
        <time>2013-09-23T16:51:39Z</time>
      </trkpt>
      <trkpt lat="45.13113" lon="5.93018">
        <ele>2400</ele>
        <time>2013-09-23T16:52:00Z</time>
      </trkpt>
      <trkpt lat="45.13105" lon="5.93002">
        <ele>2402</ele>
        <time>2013-09-23T16:52:22Z</time>
      </trkpt>
      <trkpt lat="45.13101" lon="5.92985">
        <ele>2385</ele>
        <time>2013-09-23T16:52:42Z</time>
      </trkpt>
      <trkpt lat="45.13103" lon="5.92983">
        <ele>2382</ele>
        <time>2013-09-23T16:53:02Z</time>
      </trkpt>
      <trkpt lat="45.13103" lon="5.92973">
        <ele>2378</ele>
        <time>2013-09-23T16:53:21Z</time>
      </trkpt>
      <trkpt lat="45.13103" lon="5.92973">
        <ele>2378</ele>
        <time>2013-09-23T16:53:48Z</time>
      </trkpt>
      <trkpt lat="45.13103" lon="5.92977">
        <ele>2379</ele>
        <time>2013-09-23T16:54:10Z</time>
      </trkpt>
      <trkpt lat="45.1311" lon="5.92979">
        <ele>2377</ele>
        <time>2013-09-23T16:54:35Z</time>
      </trkpt>
      <trkpt lat="45.1311" lon="5.92984">
        <ele>2379</ele>
        <time>2013-09-23T16:55:09Z</time>
      </trkpt>
      <trkpt lat="45.13109" lon="5.92984">
        <ele>2379</ele>
        <time>2013-09-23T16:55:33Z</time>
      </trkpt>
      <trkpt lat="45.13109" lon="5.92979">
        <ele>2378</ele>
        <time>2013-09-23T16:55:56Z</time>
      </trkpt>
      <trkpt lat="45.13105" lon="5.92977">
        <ele>2379</ele>
        <time>2013-09-23T16:56:21Z</time>
      </trkpt>
      <trkpt lat="45.131" lon="5.92979">
        <ele>2382</ele>
        <time>2013-09-23T16:56:39Z</time>
      </trkpt>
      <trkpt lat="45.13097" lon="5.92992">
        <ele>2391</ele>
        <time>2013-09-23T16:57:02Z</time>
      </trkpt>
      <trkpt lat="45.13094" lon="5.93004">
        <ele>2408</ele>
        <time>2013-09-23T16:57:25Z</time>
      </trkpt>
      <trkpt lat="45.131" lon="5.93015">
        <ele>2404</ele>
        <time>2013-09-23T16:57:46Z</time>
      </trkpt>
      <trkpt lat="45.13099" lon="5.93024">
        <ele>2403</ele>
        <time>2013-09-23T16:58:13Z</time>
      </trkpt>
      <trkpt lat="45.13099" lon="5.93023">
        <ele>2404</ele>
        <time>2013-09-23T16:58:37Z</time>
      </trkpt>
      <trkpt lat="45.13095" lon="5.93022">
        <ele>2405</ele>
        <time>2013-09-23T16:58:56Z</time>
      </trkpt>
      <trkpt lat="45.13088" lon="5.93018">
        <ele>2406</ele>
        <time>2013-09-23T16:59:16Z</time>
      </trkpt>
      <trkpt lat="45.13082" lon="5.93016">
        <ele>2416</ele>
        <time>2013-09-23T16:59:38Z</time>
      </trkpt>
      <trkpt lat="45.1308" lon="5.93015">
        <ele>2416</ele>
        <time>2013-09-23T16:59:59Z</time>
      </trkpt>
      <trkpt lat="45.13081" lon="5.93008">
        <ele>2415</ele>
        <time>2013-09-23T17:00:12Z</time>
      </trkpt>
      <trkpt lat="45.1308" lon="5.93002">
        <ele>2415</ele>
        <time>2013-09-23T17:00:23Z</time>
      </trkpt>
      <trkpt lat="45.13074" lon="5.92986">
        <ele>2406</ele>
        <time>2013-09-23T17:00:43Z</time>
      </trkpt>
      <trkpt lat="45.13069" lon="5.92963">
        <ele>2398</ele>
        <time>2013-09-23T17:01:06Z</time>
      </trkpt>
      <trkpt lat="45.13071" lon="5.92961">
        <ele>2398</ele>
        <time>2013-09-23T17:01:27Z</time>
      </trkpt>
      <trkpt lat="45.13074" lon="5.92961">
        <ele>2398</ele>
        <time>2013-09-23T17:01:53Z</time>
      </trkpt>
      <trkpt lat="45.13074" lon="5.92962">
        <ele>2398</ele>
        <time>2013-09-23T17:02:24Z</time>
      </trkpt>
      <trkpt lat="45.13078" lon="5.92961">
        <ele>2398</ele>
        <time>2013-09-23T17:02:58Z</time>
      </trkpt>
      <trkpt lat="45.13079" lon="5.92961">
        <ele>2397</ele>
        <time>2013-09-23T17:03:28Z</time>
      </trkpt>
      <trkpt lat="45.13075" lon="5.9296">
        <ele>2397</ele>
        <time>2013-09-23T17:04:00Z</time>
      </trkpt>
      <trkpt lat="45.13075" lon="5.92951">
        <ele>2394</ele>
        <time>2013-09-23T17:04:25Z</time>
      </trkpt>
      <trkpt lat="45.13071" lon="5.92945">
        <ele>2392</ele>
        <time>2013-09-23T17:04:52Z</time>
      </trkpt>
      <trkpt lat="45.13075" lon="5.92939">
        <ele>2390</ele>
        <time>2013-09-23T17:05:24Z</time>
      </trkpt>
      <trkpt lat="45.13081" lon="5.92956">
        <ele>2396</ele>
        <time>2013-09-23T17:05:44Z</time>
      </trkpt>
      <trkpt lat="45.13081" lon="5.92961">
        <ele>2398</ele>
        <time>2013-09-23T17:06:03Z</time>
      </trkpt>
      <trkpt lat="45.13082" lon="5.92962">
        <ele>2398</ele>
        <time>2013-09-23T17:06:33Z</time>
      </trkpt>
      <trkpt lat="45.13082" lon="5.92962">
        <ele>2398</ele>
        <time>2013-09-23T17:07:08Z</time>
      </trkpt>
      <trkpt lat="45.13082" lon="5.92962">
        <ele>2398</ele>
        <time>2013-09-23T17:07:46Z</time>
      </trkpt>
      <trkpt lat="45.13082" lon="5.92962">
        <ele>2398</ele>
        <time>2013-09-23T17:08:18Z</time>
      </trkpt>
      <trkpt lat="45.13082" lon="5.9296">
        <ele>2397</ele>
        <time>2013-09-23T17:08:50Z</time>
      </trkpt>
      <trkpt lat="45.13081" lon="5.92959">
        <ele>2397</ele>
        <time>2013-09-23T17:09:27Z</time>
      </trkpt>
      <trkpt lat="45.13082" lon="5.9296">
        <ele>2397</ele>
        <time>2013-09-23T17:10:15Z</time>
      </trkpt>
      <trkpt lat="45.13082" lon="5.9296">
        <ele>2397</ele>
        <time>2013-09-23T17:11:53Z</time>
      </trkpt>
      <trkpt lat="45.13083" lon="5.92962">
        <ele>2398</ele>
        <time>2013-09-23T17:13:31Z</time>
      </trkpt>
      <trkpt lat="45.13082" lon="5.92962">
        <ele>2398</ele>
        <time>2013-09-23T17:14:55Z</time>
      </trkpt>
      <trkpt lat="45.13082" lon="5.92961">
        <ele>2398</ele>
        <time>2013-09-23T17:16:17Z</time>
      </trkpt>
      <trkpt lat="45.13082" lon="5.92961">
        <ele>2398</ele>
        <time>2013-09-23T17:17:35Z</time>
      </trkpt>
      <trkpt lat="45.13081" lon="5.92958">
        <ele>2397</ele>
        <time>2013-09-23T17:18:32Z</time>
      </trkpt>
      <trkpt lat="45.13081" lon="5.92958">
        <ele>2397</ele>
        <time>2013-09-23T17:19:35Z</time>
      </trkpt>
      <trkpt lat="45.13081" lon="5.92957">
        <ele>2396</ele>
        <time>2013-09-23T17:20:10Z</time>
      </trkpt>
      <trkpt lat="45.13081" lon="5.92957">
        <ele>2396</ele>
        <time>2013-09-23T17:21:30Z</time>
      </trkpt>
      <trkpt lat="45.13081" lon="5.92957">
        <ele>2396</ele>
        <time>2013-09-23T17:22:36Z</time>
      </trkpt>
      <trkpt lat="45.13081" lon="5.92958">
        <ele>2396</ele>
        <time>2013-09-23T17:23:53Z</time>
      </trkpt>
      <trkpt lat="45.13081" lon="5.92957">
        <ele>2396</ele>
        <time>2013-09-23T17:24:57Z</time>
      </trkpt>
      <trkpt lat="45.13081" lon="5.92957">
        <ele>2396</ele>
        <time>2013-09-23T17:26:16Z</time>
      </trkpt>
      <trkpt lat="45.1308" lon="5.92958">
        <ele>2397</ele>
        <time>2013-09-23T17:27:32Z</time>
      </trkpt>
      <trkpt lat="45.1308" lon="5.92959">
        <ele>2397</ele>
        <time>2013-09-23T17:28:47Z</time>
      </trkpt>
      <trkpt lat="45.13079" lon="5.92961">
        <ele>2398</ele>
        <time>2013-09-23T17:30:00Z</time>
      </trkpt>
      <trkpt lat="45.13079" lon="5.9296">
        <ele>2397</ele>
        <time>2013-09-23T17:30:27Z</time>
      </trkpt>
      <trkpt lat="45.13079" lon="5.9296">
        <ele>2397</ele>
        <time>2013-09-23T17:30:51Z</time>
      </trkpt>
      <trkpt lat="45.13079" lon="5.92961">
        <ele>2398</ele>
        <time>2013-09-23T17:31:14Z</time>
      </trkpt>
      <trkpt lat="45.13077" lon="5.92963">
        <ele>2398</ele>
        <time>2013-09-23T17:31:37Z</time>
      </trkpt>
      <trkpt lat="45.13078" lon="5.92963">
        <ele>2398</ele>
        <time>2013-09-23T17:32:06Z</time>
      </trkpt>
      <trkpt lat="45.13077" lon="5.9296">
        <ele>2397</ele>
        <time>2013-09-23T17:32:33Z</time>
      </trkpt>
      <trkpt lat="45.13077" lon="5.9296">
        <ele>2397</ele>
        <time>2013-09-23T17:33:08Z</time>
      </trkpt>
      <trkpt lat="45.13078" lon="5.92961">
        <ele>2398</ele>
        <time>2013-09-23T17:33:38Z</time>
      </trkpt>
      <trkpt lat="45.13078" lon="5.9296">
        <ele>2397</ele>
        <time>2013-09-23T17:34:11Z</time>
      </trkpt>
      <trkpt lat="45.13078" lon="5.92962">
        <ele>2398</ele>
        <time>2013-09-23T17:34:37Z</time>
      </trkpt>
      <trkpt lat="45.13077" lon="5.9296">
        <ele>2397</ele>
        <time>2013-09-23T17:35:02Z</time>
      </trkpt>
      <trkpt lat="45.13077" lon="5.92961">
        <ele>2398</ele>
        <time>2013-09-23T17:35:33Z</time>
      </trkpt>
      <trkpt lat="45.13076" lon="5.92961">
        <ele>2398</ele>
        <time>2013-09-23T17:35:54Z</time>
      </trkpt>
      <trkpt lat="45.13076" lon="5.92961">
        <ele>2398</ele>
        <time>2013-09-23T17:36:13Z</time>
      </trkpt>
      <trkpt lat="45.13076" lon="5.92957">
        <ele>2396</ele>
        <time>2013-09-23T17:36:35Z</time>
      </trkpt>
      <trkpt lat="45.13077" lon="5.92959">
        <ele>2397</ele>
        <time>2013-09-23T17:36:53Z</time>
      </trkpt>
      <trkpt lat="45.13075" lon="5.92955">
        <ele>2396</ele>
        <time>2013-09-23T17:37:16Z</time>
      </trkpt>
      <trkpt lat="45.13075" lon="5.92955">
        <ele>2396</ele>
        <time>2013-09-23T17:37:55Z</time>
      </trkpt>
      <trkpt lat="45.13075" lon="5.92956">
        <ele>2396</ele>
        <time>2013-09-23T17:38:22Z</time>
      </trkpt>
      <trkpt lat="45.13077" lon="5.92958">
        <ele>2397</ele>
        <time>2013-09-23T17:38:44Z</time>
      </trkpt>
      <trkpt lat="45.13078" lon="5.92958">
        <ele>2397</ele>
        <time>2013-09-23T17:39:04Z</time>
      </trkpt>
      <trkpt lat="45.13078" lon="5.92957">
        <ele>2396</ele>
        <time>2013-09-23T17:39:31Z</time>
      </trkpt>
      <trkpt lat="45.13078" lon="5.92959">
        <ele>2397</ele>
        <time>2013-09-23T17:40:04Z</time>
      </trkpt>
      <trkpt lat="45.13077" lon="5.92961">
        <ele>2398</ele>
        <time>2013-09-23T17:40:23Z</time>
      </trkpt>
      <trkpt lat="45.13072" lon="5.92971">
        <ele>2401</ele>
        <time>2013-09-23T17:40:35Z</time>
      </trkpt>
      <trkpt lat="45.13069" lon="5.92981">
        <ele>2403</ele>
        <time>2013-09-23T17:40:46Z</time>
      </trkpt>
      <trkpt lat="45.13063" lon="5.92984">
        <ele>2404</ele>
        <time>2013-09-23T17:40:54Z</time>
      </trkpt>
      <trkpt lat="45.1306" lon="5.92989">
        <ele>2404</ele>
        <time>2013-09-23T17:40:59Z</time>
      </trkpt>
      <trkpt lat="45.13058" lon="5.93004">
        <ele>2416</ele>
        <time>2013-09-23T17:41:09Z</time>
      </trkpt>
      <trkpt lat="45.13055" lon="5.9301">
        <ele>2416</ele>
        <time>2013-09-23T17:41:16Z</time>
      </trkpt>
      <trkpt lat="45.13054" lon="5.9301">
        <ele>2416</ele>
        <time>2013-09-23T17:41:17Z</time>
      </trkpt>
      <trkpt lat="45.13047" lon="5.93012">
        <ele>2416</ele>
        <time>2013-09-23T17:41:25Z</time>
      </trkpt>
      <trkpt lat="45.13041" lon="5.93009">
        <ele>2416</ele>
        <time>2013-09-23T17:41:31Z</time>
      </trkpt>
      <trkpt lat="45.13033" lon="5.92999">
        <ele>2404</ele>
        <time>2013-09-23T17:41:40Z</time>
      </trkpt>
      <trkpt lat="45.13023" lon="5.93005">
        <ele>2414</ele>
        <time>2013-09-23T17:41:50Z</time>
      </trkpt>
      <trkpt lat="45.13016" lon="5.93007">
        <ele>2414</ele>
        <time>2013-09-23T17:42:01Z</time>
      </trkpt>
      <trkpt lat="45.13016" lon="5.93007">
        <ele>2414</ele>
        <time>2013-09-23T17:42:04Z</time>
      </trkpt>
      <trkpt lat="45.13011" lon="5.92987">
        <ele>2405</ele>
        <time>2013-09-23T17:42:11Z</time>
      </trkpt>
      <trkpt lat="45.13008" lon="5.92973">
        <ele>2403</ele>
        <time>2013-09-23T17:42:16Z</time>
      </trkpt>
      <trkpt lat="45.13004" lon="5.92963">
        <ele>2401</ele>
        <time>2013-09-23T17:42:21Z</time>
      </trkpt>
      <trkpt lat="45.13002" lon="5.92956">
        <ele>2401</ele>
        <time>2013-09-23T17:42:24Z</time>
      </trkpt>
      <trkpt lat="45.13" lon="5.92947">
        <ele>2394</ele>
        <time>2013-09-23T17:42:28Z</time>
      </trkpt>
      <trkpt lat="45.12998" lon="5.92938">
        <ele>2394</ele>
        <time>2013-09-23T17:42:33Z</time>
      </trkpt>
      <trkpt lat="45.12992" lon="5.92931">
        <ele>2394</ele>
        <time>2013-09-23T17:42:42Z</time>
      </trkpt>
      <trkpt lat="45.12988" lon="5.92925">
        <ele>2394</ele>
        <time>2013-09-23T17:42:50Z</time>
      </trkpt>
      <trkpt lat="45.12984" lon="5.92926">
        <ele>2394</ele>
        <time>2013-09-23T17:42:55Z</time>
      </trkpt>
      <trkpt lat="45.12983" lon="5.92921">
        <ele>2393</ele>
        <time>2013-09-23T17:42:59Z</time>
      </trkpt>
      <trkpt lat="45.1298" lon="5.92906">
        <ele>2384</ele>
        <time>2013-09-23T17:43:07Z</time>
      </trkpt>
      <trkpt lat="45.12976" lon="5.92893">
        <ele>2380</ele>
        <time>2013-09-23T17:43:13Z</time>
      </trkpt>
      <trkpt lat="45.12972" lon="5.92882">
        <ele>2377</ele>
        <time>2013-09-23T17:43:19Z</time>
      </trkpt>
      <trkpt lat="45.12969" lon="5.9288">
        <ele>2376</ele>
        <time>2013-09-23T17:43:27Z</time>
      </trkpt>
      <trkpt lat="45.12965" lon="5.92875">
        <ele>2374</ele>
        <time>2013-09-23T17:43:33Z</time>
      </trkpt>
      <trkpt lat="45.12958" lon="5.92873">
        <ele>2373</ele>
        <time>2013-09-23T17:43:39Z</time>
      </trkpt>
      <trkpt lat="45.12951" lon="5.92867">
        <ele>2370</ele>
        <time>2013-09-23T17:43:45Z</time>
      </trkpt>
      <trkpt lat="45.12947" lon="5.92867">
        <ele>2370</ele>
        <time>2013-09-23T17:43:50Z</time>
      </trkpt>
      <trkpt lat="45.12941" lon="5.92875">
        <ele>2369</ele>
        <time>2013-09-23T17:43:59Z</time>
      </trkpt>
      <trkpt lat="45.12932" lon="5.92879">
        <ele>2369</ele>
        <time>2013-09-23T17:44:12Z</time>
      </trkpt>
      <trkpt lat="45.12924" lon="5.92866">
        <ele>2365</ele>
        <time>2013-09-23T17:44:23Z</time>
      </trkpt>
      <trkpt lat="45.12919" lon="5.92864">
        <ele>2364</ele>
        <time>2013-09-23T17:44:27Z</time>
      </trkpt>
      <trkpt lat="45.12909" lon="5.92858">
        <ele>2346</ele>
        <time>2013-09-23T17:44:40Z</time>
      </trkpt>
      <trkpt lat="45.12908" lon="5.92859">
        <ele>2346</ele>
        <time>2013-09-23T17:44:54Z</time>
      </trkpt>
      <trkpt lat="45.12903" lon="5.92854">
        <ele>2345</ele>
        <time>2013-09-23T17:44:58Z</time>
      </trkpt>
      <trkpt lat="45.12904" lon="5.92853">
        <ele>2345</ele>
        <time>2013-09-23T17:45:00Z</time>
      </trkpt>
      <trkpt lat="45.12903" lon="5.92841">
        <ele>2344</ele>
        <time>2013-09-23T17:45:07Z</time>
      </trkpt>
      <trkpt lat="45.12898" lon="5.92832">
        <ele>2333</ele>
        <time>2013-09-23T17:45:13Z</time>
      </trkpt>
      <trkpt lat="45.12896" lon="5.92828">
        <ele>2332</ele>
        <time>2013-09-23T17:45:17Z</time>
      </trkpt>
      <trkpt lat="45.12896" lon="5.92817">
        <ele>2330</ele>
        <time>2013-09-23T17:45:23Z</time>
      </trkpt>
      <trkpt lat="45.12896" lon="5.92815">
        <ele>2330</ele>
        <time>2013-09-23T17:45:24Z</time>
      </trkpt>
      <trkpt lat="45.12895" lon="5.92808">
        <ele>2328</ele>
        <time>2013-09-23T17:45:28Z</time>
      </trkpt>
      <trkpt lat="45.12898" lon="5.92794">
        <ele>2326</ele>
        <time>2013-09-23T17:45:34Z</time>
      </trkpt>
      <trkpt lat="45.12897" lon="5.92781">
        <ele>2324</ele>
        <time>2013-09-23T17:45:39Z</time>
      </trkpt>
      <trkpt lat="45.12898" lon="5.92763">
        <ele>2324</ele>
        <time>2013-09-23T17:45:46Z</time>
      </trkpt>
      <trkpt lat="45.12899" lon="5.92759">
        <ele>2324</ele>
        <time>2013-09-23T17:45:48Z</time>
      </trkpt>
      <trkpt lat="45.129" lon="5.92741">
        <ele>2313</ele>
        <time>2013-09-23T17:45:55Z</time>
      </trkpt>
      <trkpt lat="45.12901" lon="5.92729">
        <ele>2309</ele>
        <time>2013-09-23T17:46:02Z</time>
      </trkpt>
      <trkpt lat="45.12908" lon="5.92734">
        <ele>2314</ele>
        <time>2013-09-23T17:46:17Z</time>
      </trkpt>
      <trkpt lat="45.12907" lon="5.9272">
        <ele>2308</ele>
        <time>2013-09-23T17:46:35Z</time>
      </trkpt>
      <trkpt lat="45.12904" lon="5.92701">
        <ele>2303</ele>
        <time>2013-09-23T17:46:40Z</time>
      </trkpt>
      <trkpt lat="45.12903" lon="5.92682">
        <ele>2302</ele>
        <time>2013-09-23T17:46:48Z</time>
      </trkpt>
      <trkpt lat="45.12903" lon="5.92681">
        <ele>2303</ele>
        <time>2013-09-23T17:46:49Z</time>
      </trkpt>
      <trkpt lat="45.1291" lon="5.92677">
        <ele>2304</ele>
        <time>2013-09-23T17:47:18Z</time>
      </trkpt>
      <trkpt lat="45.12913" lon="5.92686">
        <ele>2304</ele>
        <time>2013-09-23T17:47:41Z</time>
      </trkpt>
      <trkpt lat="45.12914" lon="5.92686">
        <ele>2304</ele>
        <time>2013-09-23T17:48:09Z</time>
      </trkpt>
      <trkpt lat="45.12916" lon="5.92688">
        <ele>2304</ele>
        <time>2013-09-23T17:48:37Z</time>
      </trkpt>
      <trkpt lat="45.12926" lon="5.92689">
        <ele>2323</ele>
        <time>2013-09-23T17:48:58Z</time>
      </trkpt>
      <trkpt lat="45.12925" lon="5.92685">
        <ele>2322</ele>
        <time>2013-09-23T17:49:21Z</time>
      </trkpt>
      <trkpt lat="45.12927" lon="5.92685">
        <ele>2322</ele>
        <time>2013-09-23T17:49:54Z</time>
      </trkpt>
      <trkpt lat="45.12931" lon="5.92691">
        <ele>2325</ele>
        <time>2013-09-23T17:50:16Z</time>
      </trkpt>
      <trkpt lat="45.1293" lon="5.9269">
        <ele>2325</ele>
        <time>2013-09-23T17:50:42Z</time>
      </trkpt>
      <trkpt lat="45.12923" lon="5.92689">
        <ele>2323</ele>
        <time>2013-09-23T17:50:57Z</time>
      </trkpt>
      <trkpt lat="45.12919" lon="5.92684">
        <ele>2320</ele>
        <time>2013-09-23T17:51:06Z</time>
      </trkpt>
      <trkpt lat="45.12917" lon="5.92674">
        <ele>2314</ele>
        <time>2013-09-23T17:51:18Z</time>
      </trkpt>
      <trkpt lat="45.12918" lon="5.92668">
        <ele>2310</ele>
        <time>2013-09-23T17:51:30Z</time>
      </trkpt>
      <trkpt lat="45.12919" lon="5.92668">
        <ele>2311</ele>
        <time>2013-09-23T17:52:02Z</time>
      </trkpt>
      <trkpt lat="45.12914" lon="5.92665">
        <ele>2304</ele>
        <time>2013-09-23T17:52:11Z</time>
      </trkpt>
      <trkpt lat="45.12906" lon="5.92661">
        <ele>2297</ele>
        <time>2013-09-23T17:52:22Z</time>
      </trkpt>
      <trkpt lat="45.12904" lon="5.92646">
        <ele>2291</ele>
        <time>2013-09-23T17:52:34Z</time>
      </trkpt>
      <trkpt lat="45.12902" lon="5.92633">
        <ele>2287</ele>
        <time>2013-09-23T17:52:39Z</time>
      </trkpt>
      <trkpt lat="45.12901" lon="5.92627">
        <ele>2286</ele>
        <time>2013-09-23T17:52:42Z</time>
      </trkpt>
      <trkpt lat="45.12903" lon="5.92628">
        <ele>2287</ele>
        <time>2013-09-23T17:53:16Z</time>
      </trkpt>
      <trkpt lat="45.129" lon="5.92627">
        <ele>2286</ele>
        <time>2013-09-23T17:53:22Z</time>
      </trkpt>
      <trkpt lat="45.12888" lon="5.92631">
        <ele>2284</ele>
        <time>2013-09-23T17:53:28Z</time>
      </trkpt>
      <trkpt lat="45.12886" lon="5.92632">
        <ele>2284</ele>
        <time>2013-09-23T17:53:29Z</time>
      </trkpt>
      <trkpt lat="45.12883" lon="5.92622">
        <ele>2282</ele>
        <time>2013-09-23T17:53:34Z</time>
      </trkpt>
      <trkpt lat="45.12887" lon="5.92617">
        <ele>2283</ele>
        <time>2013-09-23T17:53:45Z</time>
      </trkpt>
      <trkpt lat="45.12885" lon="5.92613">
        <ele>2282</ele>
        <time>2013-09-23T17:53:50Z</time>
      </trkpt>
      <trkpt lat="45.12881" lon="5.92614">
        <ele>2281</ele>
        <time>2013-09-23T17:53:54Z</time>
      </trkpt>
      <trkpt lat="45.12876" lon="5.92601">
        <ele>2279</ele>
        <time>2013-09-23T17:54:04Z</time>
      </trkpt>
      <trkpt lat="45.12873" lon="5.92585">
        <ele>2277</ele>
        <time>2013-09-23T17:54:16Z</time>
      </trkpt>
      <trkpt lat="45.12873" lon="5.92579">
        <ele>2273</ele>
        <time>2013-09-23T17:54:20Z</time>
      </trkpt>
      <trkpt lat="45.12864" lon="5.92576">
        <ele>2269</ele>
        <time>2013-09-23T17:54:30Z</time>
      </trkpt>
      <trkpt lat="45.12863" lon="5.92575">
        <ele>2269</ele>
        <time>2013-09-23T17:54:32Z</time>
      </trkpt>
      <trkpt lat="45.1286" lon="5.92567">
        <ele>2269</ele>
        <time>2013-09-23T17:54:38Z</time>
      </trkpt>
      <trkpt lat="45.12853" lon="5.92547">
        <ele>2268</ele>
        <time>2013-09-23T17:54:53Z</time>
      </trkpt>
      <trkpt lat="45.12852" lon="5.92537">
        <ele>2268</ele>
        <time>2013-09-23T17:54:58Z</time>
      </trkpt>
      <trkpt lat="45.12852" lon="5.92525">
        <ele>2267</ele>
        <time>2013-09-23T17:55:12Z</time>
      </trkpt>
      <trkpt lat="45.12854" lon="5.92526">
        <ele>2268</ele>
        <time>2013-09-23T17:55:45Z</time>
      </trkpt>
      <trkpt lat="45.12851" lon="5.92509">
        <ele>2265</ele>
        <time>2013-09-23T17:56:13Z</time>
      </trkpt>
      <trkpt lat="45.12847" lon="5.92498">
        <ele>2259</ele>
        <time>2013-09-23T17:56:26Z</time>
      </trkpt>
      <trkpt lat="45.12847" lon="5.92497">
        <ele>2258</ele>
        <time>2013-09-23T17:56:57Z</time>
      </trkpt>
      <trkpt lat="45.12848" lon="5.92497">
        <ele>2259</ele>
        <time>2013-09-23T17:57:31Z</time>
      </trkpt>
      <trkpt lat="45.12847" lon="5.92496">
        <ele>2259</ele>
        <time>2013-09-23T17:57:58Z</time>
      </trkpt>
      <trkpt lat="45.12847" lon="5.92497">
        <ele>2259</ele>
        <time>2013-09-23T17:58:34Z</time>
      </trkpt>
      <trkpt lat="45.12848" lon="5.92497">
        <ele>2259</ele>
        <time>2013-09-23T17:58:42Z</time>
      </trkpt>
      <trkpt lat="45.12855" lon="5.92503">
        <ele>2266</ele>
        <time>2013-09-23T17:58:47Z</time>
      </trkpt>
      <trkpt lat="45.12865" lon="5.92492">
        <ele>2264</ele>
        <time>2013-09-23T17:58:56Z</time>
      </trkpt>
      <trkpt lat="45.12863" lon="5.92478">
        <ele>2262</ele>
        <time>2013-09-23T17:59:02Z</time>
      </trkpt>
      <trkpt lat="45.12857" lon="5.92465">
        <ele>2260</ele>
        <time>2013-09-23T17:59:09Z</time>
      </trkpt>
      <trkpt lat="45.12856" lon="5.92462">
        <ele>2260</ele>
        <time>2013-09-23T17:59:12Z</time>
      </trkpt>
      <trkpt lat="45.12855" lon="5.92449">
        <ele>2257</ele>
        <time>2013-09-23T17:59:25Z</time>
      </trkpt>
      <trkpt lat="45.12853" lon="5.92441">
        <ele>2255</ele>
        <time>2013-09-23T17:59:34Z</time>
      </trkpt>
      <trkpt lat="45.12852" lon="5.92432">
        <ele>2252</ele>
        <time>2013-09-23T17:59:41Z</time>
      </trkpt>
      <trkpt lat="45.12855" lon="5.92421">
        <ele>2251</ele>
        <time>2013-09-23T17:59:46Z</time>
      </trkpt>
      <trkpt lat="45.12859" lon="5.92405">
        <ele>2243</ele>
        <time>2013-09-23T17:59:54Z</time>
      </trkpt>
      <trkpt lat="45.12861" lon="5.92399">
        <ele>2243</ele>
        <time>2013-09-23T18:00:10Z</time>
      </trkpt>
      <trkpt lat="45.1286" lon="5.92388">
        <ele>2242</ele>
        <time>2013-09-23T18:00:33Z</time>
      </trkpt>
      <trkpt lat="45.12859" lon="5.92386">
        <ele>2242</ele>
        <time>2013-09-23T18:00:36Z</time>
      </trkpt>
      <trkpt lat="45.12854" lon="5.92375">
        <ele>2240</ele>
        <time>2013-09-23T18:00:43Z</time>
      </trkpt>
      <trkpt lat="45.12853" lon="5.92368">
        <ele>2238</ele>
        <time>2013-09-23T18:00:48Z</time>
      </trkpt>
      <trkpt lat="45.12853" lon="5.92357">
        <ele>2235</ele>
        <time>2013-09-23T18:00:53Z</time>
      </trkpt>
      <trkpt lat="45.12852" lon="5.9235">
        <ele>2232</ele>
        <time>2013-09-23T18:00:56Z</time>
      </trkpt>
      <trkpt lat="45.12849" lon="5.92343">
        <ele>2228</ele>
        <time>2013-09-23T18:01:02Z</time>
      </trkpt>
      <trkpt lat="45.12848" lon="5.92343">
        <ele>2227</ele>
        <time>2013-09-23T18:01:04Z</time>
      </trkpt>
      <trkpt lat="45.12845" lon="5.92335">
        <ele>2222</ele>
        <time>2013-09-23T18:01:14Z</time>
      </trkpt>
      <trkpt lat="45.1284" lon="5.92323">
        <ele>2213</ele>
        <time>2013-09-23T18:01:22Z</time>
      </trkpt>
      <trkpt lat="45.12838" lon="5.92322">
        <ele>2212</ele>
        <time>2013-09-23T18:01:24Z</time>
      </trkpt>
      <trkpt lat="45.12836" lon="5.92321">
        <ele>2212</ele>
        <time>2013-09-23T18:01:27Z</time>
      </trkpt>
      <trkpt lat="45.12832" lon="5.9231">
        <ele>2200</ele>
        <time>2013-09-23T18:01:33Z</time>
      </trkpt>
      <trkpt lat="45.12832" lon="5.92307">
        <ele>2199</ele>
        <time>2013-09-23T18:01:34Z</time>
      </trkpt>
      <trkpt lat="45.12829" lon="5.92295">
        <ele>2197</ele>
        <time>2013-09-23T18:01:40Z</time>
      </trkpt>
      <trkpt lat="45.12829" lon="5.92286">
        <ele>2195</ele>
        <time>2013-09-23T18:01:45Z</time>
      </trkpt>
      <trkpt lat="45.12829" lon="5.92282">
        <ele>2194</ele>
        <time>2013-09-23T18:01:47Z</time>
      </trkpt>
      <trkpt lat="45.12827" lon="5.9228">
        <ele>2194</ele>
        <time>2013-09-23T18:01:50Z</time>
      </trkpt>
      <trkpt lat="45.12825" lon="5.92277">
        <ele>2193</ele>
        <time>2013-09-23T18:01:56Z</time>
      </trkpt>
      <trkpt lat="45.1282" lon="5.92269">
        <ele>2192</ele>
        <time>2013-09-23T18:02:03Z</time>
      </trkpt>
      <trkpt lat="45.1282" lon="5.92263">
        <ele>2191</ele>
        <time>2013-09-23T18:02:06Z</time>
      </trkpt>
      <trkpt lat="45.12814" lon="5.92258">
        <ele>2191</ele>
        <time>2013-09-23T18:02:11Z</time>
      </trkpt>
      <trkpt lat="45.1281" lon="5.92248">
        <ele>2181</ele>
        <time>2013-09-23T18:02:17Z</time>
      </trkpt>
      <trkpt lat="45.12815" lon="5.92235">
        <ele>2180</ele>
        <time>2013-09-23T18:02:31Z</time>
      </trkpt>
      <trkpt lat="45.1282" lon="5.92214">
        <ele>2178</ele>
        <time>2013-09-23T18:02:50Z</time>
      </trkpt>
      <trkpt lat="45.12819" lon="5.92204">
        <ele>2176</ele>
        <time>2013-09-23T18:02:56Z</time>
      </trkpt>
      <trkpt lat="45.12817" lon="5.9219">
        <ele>2175</ele>
        <time>2013-09-23T18:03:11Z</time>
      </trkpt>
      <trkpt lat="45.12817" lon="5.9218">
        <ele>2174</ele>
        <time>2013-09-23T18:03:33Z</time>
      </trkpt>
      <trkpt lat="45.12824" lon="5.92159">
        <ele>2164</ele>
        <time>2013-09-23T18:03:54Z</time>
      </trkpt>
      <trkpt lat="45.12824" lon="5.92157">
        <ele>2163</ele>
        <time>2013-09-23T18:04:18Z</time>
      </trkpt>
      <trkpt lat="45.12826" lon="5.9215">
        <ele>2160</ele>
        <time>2013-09-23T18:04:42Z</time>
      </trkpt>
      <trkpt lat="45.12825" lon="5.92139">
        <ele>2155</ele>
        <time>2013-09-23T18:04:53Z</time>
      </trkpt>
      <trkpt lat="45.12821" lon="5.92129">
        <ele>2152</ele>
        <time>2013-09-23T18:05:03Z</time>
      </trkpt>
      <trkpt lat="45.12824" lon="5.92123">
        <ele>2150</ele>
        <time>2013-09-23T18:05:09Z</time>
      </trkpt>
      <trkpt lat="45.12831" lon="5.92107">
        <ele>2146</ele>
        <time>2013-09-23T18:05:20Z</time>
      </trkpt>
      <trkpt lat="45.12834" lon="5.92098">
        <ele>2149</ele>
        <time>2013-09-23T18:05:26Z</time>
      </trkpt>
      <trkpt lat="45.12836" lon="5.92086">
        <ele>2141</ele>
        <time>2013-09-23T18:05:33Z</time>
      </trkpt>
      <trkpt lat="45.12837" lon="5.92076">
        <ele>2133</ele>
        <time>2013-09-23T18:05:41Z</time>
      </trkpt>
      <trkpt lat="45.12838" lon="5.92067">
        <ele>2129</ele>
        <time>2013-09-23T18:05:49Z</time>
      </trkpt>
      <trkpt lat="45.12842" lon="5.92059">
        <ele>2126</ele>
        <time>2013-09-23T18:05:56Z</time>
      </trkpt>
      <trkpt lat="45.12846" lon="5.92051">
        <ele>2123</ele>
        <time>2013-09-23T18:06:03Z</time>
      </trkpt>
      <trkpt lat="45.12847" lon="5.92042">
        <ele>2121</ele>
        <time>2013-09-23T18:06:11Z</time>
      </trkpt>
      <trkpt lat="45.12854" lon="5.92039">
        <ele>2120</ele>
        <time>2013-09-23T18:06:31Z</time>
      </trkpt>
      <trkpt lat="45.12851" lon="5.92042">
        <ele>2120</ele>
        <time>2013-09-23T18:07:01Z</time>
      </trkpt>
      <trkpt lat="45.1285" lon="5.92046">
        <ele>2122</ele>
        <time>2013-09-23T18:07:13Z</time>
      </trkpt>
      <trkpt lat="45.12847" lon="5.92036">
        <ele>2119</ele>
        <time>2013-09-23T18:07:19Z</time>
      </trkpt>
      <trkpt lat="45.1285" lon="5.9203">
        <ele>2117</ele>
        <time>2013-09-23T18:07:23Z</time>
      </trkpt>
      <trkpt lat="45.12848" lon="5.92024">
        <ele>2116</ele>
        <time>2013-09-23T18:07:28Z</time>
      </trkpt>
      <trkpt lat="45.12843" lon="5.92019">
        <ele>2114</ele>
        <time>2013-09-23T18:07:34Z</time>
      </trkpt>
      <trkpt lat="45.12847" lon="5.92011">
        <ele>2112</ele>
        <time>2013-09-23T18:07:40Z</time>
      </trkpt>
      <trkpt lat="45.12852" lon="5.92">
        <ele>2099</ele>
        <time>2013-09-23T18:07:46Z</time>
      </trkpt>
      <trkpt lat="45.12853" lon="5.91998">
        <ele>2099</ele>
        <time>2013-09-23T18:07:47Z</time>
      </trkpt>
      <trkpt lat="45.12852" lon="5.91992">
        <ele>2099</ele>
        <time>2013-09-23T18:07:51Z</time>
      </trkpt>
      <trkpt lat="45.1285" lon="5.91981">
        <ele>2098</ele>
        <time>2013-09-23T18:07:58Z</time>
      </trkpt>
      <trkpt lat="45.12853" lon="5.91961">
        <ele>2095</ele>
        <time>2013-09-23T18:08:06Z</time>
      </trkpt>
      <trkpt lat="45.12857" lon="5.91952">
        <ele>2094</ele>
        <time>2013-09-23T18:08:12Z</time>
      </trkpt>
      <trkpt lat="45.12862" lon="5.9195">
        <ele>2093</ele>
        <time>2013-09-23T18:08:15Z</time>
      </trkpt>
      <trkpt lat="45.12873" lon="5.91946">
        <ele>2091</ele>
        <time>2013-09-23T18:08:21Z</time>
      </trkpt>
      <trkpt lat="45.12876" lon="5.91934">
        <ele>2089</ele>
        <time>2013-09-23T18:08:29Z</time>
      </trkpt>
      <trkpt lat="45.12877" lon="5.9193">
        <ele>2089</ele>
        <time>2013-09-23T18:08:31Z</time>
      </trkpt>
      <trkpt lat="45.12879" lon="5.91925">
        <ele>2088</ele>
        <time>2013-09-23T18:08:34Z</time>
      </trkpt>
      <trkpt lat="45.12885" lon="5.91921">
        <ele>2086</ele>
        <time>2013-09-23T18:08:42Z</time>
      </trkpt>
      <trkpt lat="45.12887" lon="5.91927">
        <ele>2085</ele>
        <time>2013-09-23T18:08:46Z</time>
      </trkpt>
      <trkpt lat="45.12888" lon="5.91928">
        <ele>2085</ele>
        <time>2013-09-23T18:08:47Z</time>
      </trkpt>
      <trkpt lat="45.12896" lon="5.9193">
        <ele>2083</ele>
        <time>2013-09-23T18:08:55Z</time>
      </trkpt>
      <trkpt lat="45.12896" lon="5.9193">
        <ele>2082</ele>
        <time>2013-09-23T18:08:56Z</time>
      </trkpt>
      <trkpt lat="45.12898" lon="5.91931">
        <ele>2082</ele>
        <time>2013-09-23T18:09:18Z</time>
      </trkpt>
      <trkpt lat="45.12896" lon="5.91931">
        <ele>2083</ele>
        <time>2013-09-23T18:09:45Z</time>
      </trkpt>
      <trkpt lat="45.12898" lon="5.91929">
        <ele>2082</ele>
        <time>2013-09-23T18:10:01Z</time>
      </trkpt>
      <trkpt lat="45.12902" lon="5.91928">
        <ele>2080</ele>
        <time>2013-09-23T18:10:17Z</time>
      </trkpt>
      <trkpt lat="45.12904" lon="5.91922">
        <ele>2076</ele>
        <time>2013-09-23T18:10:34Z</time>
      </trkpt>
      <trkpt lat="45.12903" lon="5.91916">
        <ele>2071</ele>
        <time>2013-09-23T18:10:38Z</time>
      </trkpt>
      <trkpt lat="45.12908" lon="5.919">
        <ele>2071</ele>
        <time>2013-09-23T18:10:46Z</time>
      </trkpt>
      <trkpt lat="45.12924" lon="5.91901">
        <ele>2050</ele>
        <time>2013-09-23T18:10:51Z</time>
      </trkpt>
      <trkpt lat="45.1293" lon="5.91889">
        <ele>2044</ele>
        <time>2013-09-23T18:10:56Z</time>
      </trkpt>
      <trkpt lat="45.12931" lon="5.91884">
        <ele>2043</ele>
        <time>2013-09-23T18:10:59Z</time>
      </trkpt>
      <trkpt lat="45.12933" lon="5.91863">
        <ele>2040</ele>
        <time>2013-09-23T18:11:10Z</time>
      </trkpt>
      <trkpt lat="45.12934" lon="5.91861">
        <ele>2040</ele>
        <time>2013-09-23T18:11:11Z</time>
      </trkpt>
      <trkpt lat="45.12934" lon="5.91859">
        <ele>2040</ele>
        <time>2013-09-23T18:11:12Z</time>
      </trkpt>
      <trkpt lat="45.12936" lon="5.91847">
        <ele>2040</ele>
        <time>2013-09-23T18:11:18Z</time>
      </trkpt>
      <trkpt lat="45.12934" lon="5.91838">
        <ele>2040</ele>
        <time>2013-09-23T18:11:23Z</time>
      </trkpt>
      <trkpt lat="45.12933" lon="5.91833">
        <ele>2038</ele>
        <time>2013-09-23T18:11:27Z</time>
      </trkpt>
      <trkpt lat="45.12932" lon="5.91822">
        <ele>2037</ele>
        <time>2013-09-23T18:11:33Z</time>
      </trkpt>
      <trkpt lat="45.12935" lon="5.91812">
        <ele>2035</ele>
        <time>2013-09-23T18:11:38Z</time>
      </trkpt>
      <trkpt lat="45.12945" lon="5.91798">
        <ele>2031</ele>
        <time>2013-09-23T18:11:44Z</time>
      </trkpt>
      <trkpt lat="45.12954" lon="5.91781">
        <ele>2030</ele>
        <time>2013-09-23T18:11:50Z</time>
      </trkpt>
      <trkpt lat="45.1296" lon="5.9177">
        <ele>2028</ele>
        <time>2013-09-23T18:11:55Z</time>
      </trkpt>
      <trkpt lat="45.12964" lon="5.91754">
        <ele>2027</ele>
        <time>2013-09-23T18:12:01Z</time>
      </trkpt>
      <trkpt lat="45.12971" lon="5.91746">
        <ele>2026</ele>
        <time>2013-09-23T18:12:05Z</time>
      </trkpt>
      <trkpt lat="45.12976" lon="5.91735">
        <ele>2025</ele>
        <time>2013-09-23T18:12:09Z</time>
      </trkpt>
      <trkpt lat="45.12985" lon="5.91721">
        <ele>2025</ele>
        <time>2013-09-23T18:12:17Z</time>
      </trkpt>
      <trkpt lat="45.12993" lon="5.917">
        <ele>2025</ele>
        <time>2013-09-23T18:12:29Z</time>
      </trkpt>
      <trkpt lat="45.13008" lon="5.91682">
        <ele>2010</ele>
        <time>2013-09-23T18:12:41Z</time>
      </trkpt>
      <trkpt lat="45.13025" lon="5.91659">
        <ele>2008</ele>
        <time>2013-09-23T18:12:55Z</time>
      </trkpt>
      <trkpt lat="45.13029" lon="5.91657">
        <ele>2008</ele>
        <time>2013-09-23T18:12:59Z</time>
      </trkpt>
      <trkpt lat="45.13034" lon="5.91655">
        <ele>2007</ele>
        <time>2013-09-23T18:13:03Z</time>
      </trkpt>
      <trkpt lat="45.1305" lon="5.91649">
        <ele>2005</ele>
        <time>2013-09-23T18:13:14Z</time>
      </trkpt>
      <trkpt lat="45.13055" lon="5.91657">
        <ele>2004</ele>
        <time>2013-09-23T18:13:18Z</time>
      </trkpt>
      <trkpt lat="45.13057" lon="5.91661">
        <ele>2004</ele>
        <time>2013-09-23T18:13:20Z</time>
      </trkpt>
      <trkpt lat="45.13061" lon="5.91668">
        <ele>2003</ele>
        <time>2013-09-23T18:13:23Z</time>
      </trkpt>
      <trkpt lat="45.13064" lon="5.91663">
        <ele>2003</ele>
        <time>2013-09-23T18:13:35Z</time>
      </trkpt>
      <trkpt lat="45.13064" lon="5.91659">
        <ele>2003</ele>
        <time>2013-09-23T18:14:02Z</time>
      </trkpt>
      <trkpt lat="45.13064" lon="5.91659">
        <ele>2003</ele>
        <time>2013-09-23T18:14:31Z</time>
      </trkpt>
      <trkpt lat="45.13065" lon="5.91659">
        <ele>2002</ele>
        <time>2013-09-23T18:15:00Z</time>
      </trkpt>
      <trkpt lat="45.13065" lon="5.91659">
        <ele>2003</ele>
        <time>2013-09-23T18:15:28Z</time>
      </trkpt>
      <trkpt lat="45.13067" lon="5.91659">
        <ele>2002</ele>
        <time>2013-09-23T18:16:00Z</time>
      </trkpt>
      <trkpt lat="45.13066" lon="5.91658">
        <ele>2002</ele>
        <time>2013-09-23T18:16:29Z</time>
      </trkpt>
      <trkpt lat="45.13068" lon="5.91655">
        <ele>2002</ele>
        <time>2013-09-23T18:16:55Z</time>
      </trkpt>
      <trkpt lat="45.13069" lon="5.91654">
        <ele>2002</ele>
        <time>2013-09-23T18:16:56Z</time>
      </trkpt>
      <trkpt lat="45.13074" lon="5.91654">
        <ele>2002</ele>
        <time>2013-09-23T18:17:01Z</time>
      </trkpt>
      <trkpt lat="45.13075" lon="5.91658">
        <ele>2001</ele>
        <time>2013-09-23T18:17:12Z</time>
      </trkpt>
      <trkpt lat="45.13078" lon="5.91655">
        <ele>2001</ele>
        <time>2013-09-23T18:17:34Z</time>
      </trkpt>
      <trkpt lat="45.13078" lon="5.91655">
        <ele>2001</ele>
        <time>2013-09-23T18:18:06Z</time>
      </trkpt>
      <trkpt lat="45.13078" lon="5.91655">
        <ele>2001</ele>
        <time>2013-09-23T18:18:39Z</time>
      </trkpt>
      <trkpt lat="45.1308" lon="5.91655">
        <ele>2001</ele>
        <time>2013-09-23T18:19:07Z</time>
      </trkpt>
      <trkpt lat="45.1308" lon="5.91655">
        <ele>2001</ele>
        <time>2013-09-23T18:19:37Z</time>
      </trkpt>
      <trkpt lat="45.1308" lon="5.91654">
        <ele>2001</ele>
        <time>2013-09-23T18:20:08Z</time>
      </trkpt>
      <trkpt lat="45.1308" lon="5.91654">
        <ele>2001</ele>
        <time>2013-09-23T18:20:16Z</time>
      </trkpt>
      <trkpt lat="45.13076" lon="5.91658">
        <ele>2001</ele>
        <time>2013-09-23T18:20:36Z</time>
      </trkpt>
      <trkpt lat="45.13076" lon="5.91658">
        <ele>2001</ele>
        <time>2013-09-23T18:21:07Z</time>
      </trkpt>
      <trkpt lat="45.13075" lon="5.91658">
        <ele>2001</ele>
        <time>2013-09-23T18:21:35Z</time>
      </trkpt>
      <trkpt lat="45.13073" lon="5.91657">
        <ele>2001</ele>
        <time>2013-09-23T18:21:59Z</time>
      </trkpt>
      <trkpt lat="45.13067" lon="5.91649">
        <ele>2003</ele>
        <time>2013-09-23T18:22:13Z</time>
      </trkpt>
      <trkpt lat="45.13065" lon="5.91637">
        <ele>2003</ele>
        <time>2013-09-23T18:22:19Z</time>
      </trkpt>
      <trkpt lat="45.13064" lon="5.91625">
        <ele>2004</ele>
        <time>2013-09-23T18:22:25Z</time>
      </trkpt>
      <trkpt lat="45.13059" lon="5.91601">
        <ele>2003</ele>
        <time>2013-09-23T18:22:40Z</time>
      </trkpt>
      <trkpt lat="45.13053" lon="5.91577">
        <ele>2004</ele>
        <time>2013-09-23T18:22:56Z</time>
      </trkpt>
      <trkpt lat="45.13053" lon="5.91576">
        <ele>2004</ele>
        <time>2013-09-23T18:22:57Z</time>
      </trkpt>
      <trkpt lat="45.13048" lon="5.9155">
        <ele>2005</ele>
        <time>2013-09-23T18:23:13Z</time>
      </trkpt>
      <trkpt lat="45.13045" lon="5.91544">
        <ele>2005</ele>
        <time>2013-09-23T18:23:17Z</time>
      </trkpt>
      <trkpt lat="45.1304" lon="5.91527">
        <ele>2006</ele>
        <time>2013-09-23T18:23:28Z</time>
      </trkpt>
      <trkpt lat="45.13037" lon="5.91508">
        <ele>2007</ele>
        <time>2013-09-23T18:23:42Z</time>
      </trkpt>
      <trkpt lat="45.13036" lon="5.91491">
        <ele>2007</ele>
        <time>2013-09-23T18:23:51Z</time>
      </trkpt>
      <trkpt lat="45.13033" lon="5.91473">
        <ele>2007</ele>
        <time>2013-09-23T18:24:02Z</time>
      </trkpt>
      <trkpt lat="45.13033" lon="5.91468">
        <ele>2006</ele>
        <time>2013-09-23T18:24:06Z</time>
      </trkpt>
      <trkpt lat="45.13033" lon="5.91447">
        <ele>2006</ele>
        <time>2013-09-23T18:24:21Z</time>
      </trkpt>
      <trkpt lat="45.13034" lon="5.91422">
        <ele>2006</ele>
        <time>2013-09-23T18:24:38Z</time>
      </trkpt>
      <trkpt lat="45.13032" lon="5.91411">
        <ele>2006</ele>
        <time>2013-09-23T18:24:46Z</time>
      </trkpt>
      <trkpt lat="45.13033" lon="5.9139">
        <ele>2005</ele>
        <time>2013-09-23T18:24:59Z</time>
      </trkpt>
      <trkpt lat="45.13036" lon="5.91367">
        <ele>2005</ele>
        <time>2013-09-23T18:25:12Z</time>
      </trkpt>
      <trkpt lat="45.13034" lon="5.9134">
        <ele>2006</ele>
        <time>2013-09-23T18:25:28Z</time>
      </trkpt>
      <trkpt lat="45.13035" lon="5.91332">
        <ele>2008</ele>
        <time>2013-09-23T18:25:32Z</time>
      </trkpt>
      <trkpt lat="45.13039" lon="5.91312">
        <ele>2008</ele>
        <time>2013-09-23T18:25:45Z</time>
      </trkpt>
      <trkpt lat="45.13042" lon="5.91299">
        <ele>2007</ele>
        <time>2013-09-23T18:25:58Z</time>
      </trkpt>
      <trkpt lat="45.13046" lon="5.91285">
        <ele>2007</ele>
        <time>2013-09-23T18:26:25Z</time>
      </trkpt>
      <trkpt lat="45.13053" lon="5.91258">
        <ele>2006</ele>
        <time>2013-09-23T18:26:41Z</time>
      </trkpt>
      <trkpt lat="45.13061" lon="5.91243">
        <ele>2011</ele>
        <time>2013-09-23T18:26:53Z</time>
      </trkpt>
      <trkpt lat="45.13075" lon="5.91232">
        <ele>2009</ele>
        <time>2013-09-23T18:27:12Z</time>
      </trkpt>
      <trkpt lat="45.13083" lon="5.91215">
        <ele>2013</ele>
        <time>2013-09-23T18:27:31Z</time>
      </trkpt>
      <trkpt lat="45.13086" lon="5.91211">
        <ele>2005</ele>
        <time>2013-09-23T18:27:35Z</time>
      </trkpt>
      <trkpt lat="45.13098" lon="5.912">
        <ele>2006</ele>
        <time>2013-09-23T18:27:48Z</time>
      </trkpt>
      <trkpt lat="45.13103" lon="5.91199">
        <ele>2006</ele>
        <time>2013-09-23T18:27:53Z</time>
      </trkpt>
      <trkpt lat="45.13109" lon="5.91196">
        <ele>2006</ele>
        <time>2013-09-23T18:28:00Z</time>
      </trkpt>
      <trkpt lat="45.13126" lon="5.912">
        <ele>2005</ele>
        <time>2013-09-23T18:28:14Z</time>
      </trkpt>
      <trkpt lat="45.13138" lon="5.91192">
        <ele>2005</ele>
        <time>2013-09-23T18:28:27Z</time>
      </trkpt>
      <trkpt lat="45.13146" lon="5.91177">
        <ele>2006</ele>
        <time>2013-09-23T18:28:41Z</time>
      </trkpt>
      <trkpt lat="45.13147" lon="5.91165">
        <ele>2015</ele>
        <time>2013-09-23T18:28:49Z</time>
      </trkpt>
      <trkpt lat="45.13153" lon="5.91159">
        <ele>2014</ele>
        <time>2013-09-23T18:28:57Z</time>
      </trkpt>
      <trkpt lat="45.13166" lon="5.91138">
        <ele>2017</ele>
        <time>2013-09-23T18:29:17Z</time>
      </trkpt>
      <trkpt lat="45.13171" lon="5.91123">
        <ele>2015</ele>
        <time>2013-09-23T18:29:31Z</time>
      </trkpt>
      <trkpt lat="45.13174" lon="5.91112">
        <ele>2016</ele>
        <time>2013-09-23T18:29:40Z</time>
      </trkpt>
      <trkpt lat="45.13179" lon="5.91105">
        <ele>2017</ele>
        <time>2013-09-23T18:29:46Z</time>
      </trkpt>
      <trkpt lat="45.13185" lon="5.91074">
        <ele>2022</ele>
        <time>2013-09-23T18:30:07Z</time>
      </trkpt>
      <trkpt lat="45.13186" lon="5.91055">
        <ele>2023</ele>
        <time>2013-09-23T18:30:26Z</time>
      </trkpt>
      <trkpt lat="45.13186" lon="5.91039">
        <ele>2023</ele>
        <time>2013-09-23T18:30:42Z</time>
      </trkpt>
      <trkpt lat="45.13185" lon="5.91022">
        <ele>2024</ele>
        <time>2013-09-23T18:30:58Z</time>
      </trkpt>
      <trkpt lat="45.13182" lon="5.91008">
        <ele>2025</ele>
        <time>2013-09-23T18:31:11Z</time>
      </trkpt>
      <trkpt lat="45.13185" lon="5.91005">
        <ele>2025</ele>
        <time>2013-09-23T18:31:27Z</time>
      </trkpt>
      <trkpt lat="45.13184" lon="5.91005">
        <ele>2025</ele>
        <time>2013-09-23T18:31:28Z</time>
      </trkpt>
      <trkpt lat="45.13173" lon="5.90997">
        <ele>2026</ele>
        <time>2013-09-23T18:31:41Z</time>
      </trkpt>
      <trkpt lat="45.13173" lon="5.90984">
        <ele>2025</ele>
        <time>2013-09-23T18:31:50Z</time>
      </trkpt>
      <trkpt lat="45.1318" lon="5.90958">
        <ele>2024</ele>
        <time>2013-09-23T18:32:10Z</time>
      </trkpt>
      <trkpt lat="45.13189" lon="5.90964">
        <ele>2023</ele>
        <time>2013-09-23T18:32:28Z</time>
      </trkpt>
      <trkpt lat="45.1319" lon="5.90968">
        <ele>2023</ele>
        <time>2013-09-23T18:32:55Z</time>
      </trkpt>
      <trkpt lat="45.1319" lon="5.90966">
        <ele>2023</ele>
        <time>2013-09-23T18:33:23Z</time>
      </trkpt>
      <trkpt lat="45.13191" lon="5.90963">
        <ele>2023</ele>
        <time>2013-09-23T18:33:55Z</time>
      </trkpt>
      <trkpt lat="45.1319" lon="5.90962">
        <ele>2023</ele>
        <time>2013-09-23T18:34:23Z</time>
      </trkpt>
      <trkpt lat="45.13189" lon="5.90962">
        <ele>2023</ele>
        <time>2013-09-23T18:34:31Z</time>
      </trkpt>
      <trkpt lat="45.13188" lon="5.90962">
        <ele>2023</ele>
        <time>2013-09-23T18:35:00Z</time>
      </trkpt>
      <trkpt lat="45.13187" lon="5.90962">
        <ele>2023</ele>
        <time>2013-09-23T18:35:31Z</time>
      </trkpt>
      <trkpt lat="45.13187" lon="5.90963">
        <ele>2023</ele>
        <time>2013-09-23T18:36:01Z</time>
      </trkpt>
      <trkpt lat="45.13185" lon="5.90966">
        <ele>2023</ele>
        <time>2013-09-23T18:36:31Z</time>
      </trkpt>
      <trkpt lat="45.13187" lon="5.90965">
        <ele>2023</ele>
        <time>2013-09-23T18:37:01Z</time>
      </trkpt>
      <trkpt lat="45.13187" lon="5.90965">
        <ele>2023</ele>
        <time>2013-09-23T18:37:24Z</time>
      </trkpt>
      <trkpt lat="45.13187" lon="5.90964">
        <ele>2023</ele>
        <time>2013-09-23T18:37:51Z</time>
      </trkpt>
      <trkpt lat="45.13184" lon="5.90961">
        <ele>2023</ele>
        <time>2013-09-23T18:37:57Z</time>
      </trkpt>
      <trkpt lat="45.13179" lon="5.90942">
        <ele>2024</ele>
        <time>2013-09-23T18:38:14Z</time>
      </trkpt>
      <trkpt lat="45.13181" lon="5.90939">
        <ele>2024</ele>
        <time>2013-09-23T18:38:16Z</time>
      </trkpt>
      <trkpt lat="45.13185" lon="5.9092">
        <ele>2024</ele>
        <time>2013-09-23T18:38:31Z</time>
      </trkpt>
      <trkpt lat="45.13187" lon="5.90907">
        <ele>2021</ele>
        <time>2013-09-23T18:38:42Z</time>
      </trkpt>
      <trkpt lat="45.13181" lon="5.90882">
        <ele>2020</ele>
        <time>2013-09-23T18:39:01Z</time>
      </trkpt>
      <trkpt lat="45.1318" lon="5.90862">
        <ele>2020</ele>
        <time>2013-09-23T18:39:23Z</time>
      </trkpt>
      <trkpt lat="45.13172" lon="5.90857">
        <ele>2021</ele>
        <time>2013-09-23T18:39:40Z</time>
      </trkpt>
      <trkpt lat="45.13163" lon="5.9085">
        <ele>2039</ele>
        <time>2013-09-23T18:39:50Z</time>
      </trkpt>
      <trkpt lat="45.13165" lon="5.90837">
        <ele>2032</ele>
        <time>2013-09-23T18:40:08Z</time>
      </trkpt>
      <trkpt lat="45.13165" lon="5.90827">
        <ele>2034</ele>
        <time>2013-09-23T18:40:27Z</time>
      </trkpt>
      <trkpt lat="45.13167" lon="5.90822">
        <ele>2022</ele>
        <time>2013-09-23T18:40:35Z</time>
      </trkpt>
      <trkpt lat="45.13162" lon="5.90809">
        <ele>2042</ele>
        <time>2013-09-23T18:40:54Z</time>
      </trkpt>
      <trkpt lat="45.13157" lon="5.90801">
        <ele>2044</ele>
        <time>2013-09-23T18:41:13Z</time>
      </trkpt>
      <trkpt lat="45.13157" lon="5.90796">
        <ele>2045</ele>
        <time>2013-09-23T18:41:33Z</time>
      </trkpt>
      <trkpt lat="45.13164" lon="5.90788">
        <ele>2043</ele>
        <time>2013-09-23T18:41:50Z</time>
      </trkpt>
      <trkpt lat="45.13164" lon="5.90774">
        <ele>2041</ele>
        <time>2013-09-23T18:42:08Z</time>
      </trkpt>
      <trkpt lat="45.13163" lon="5.90772">
        <ele>2040</ele>
        <time>2013-09-23T18:42:10Z</time>
      </trkpt>
      <trkpt lat="45.13163" lon="5.90757">
        <ele>2031</ele>
        <time>2013-09-23T18:42:27Z</time>
      </trkpt>
      <trkpt lat="45.13162" lon="5.90744">
        <ele>2032</ele>
        <time>2013-09-23T18:42:43Z</time>
      </trkpt>
      <trkpt lat="45.13161" lon="5.90742">
        <ele>2034</ele>
        <time>2013-09-23T18:42:45Z</time>
      </trkpt>
      <trkpt lat="45.13156" lon="5.90728">
        <ele>2043</ele>
        <time>2013-09-23T18:43:03Z</time>
      </trkpt>
      <trkpt lat="45.13159" lon="5.90724">
        <ele>2043</ele>
        <time>2013-09-23T18:43:09Z</time>
      </trkpt>
      <trkpt lat="45.1316" lon="5.90715">
        <ele>2045</ele>
        <time>2013-09-23T18:43:16Z</time>
      </trkpt>
      <trkpt lat="45.13157" lon="5.9071">
        <ele>2046</ele>
        <time>2013-09-23T18:43:22Z</time>
      </trkpt>
      <trkpt lat="45.13154" lon="5.90698">
        <ele>2046</ele>
        <time>2013-09-23T18:43:37Z</time>
      </trkpt>
      <trkpt lat="45.13156" lon="5.90671">
        <ele>2035</ele>
        <time>2013-09-23T18:43:58Z</time>
      </trkpt>
      <trkpt lat="45.13153" lon="5.90663">
        <ele>2036</ele>
        <time>2013-09-23T18:44:12Z</time>
      </trkpt>
      <trkpt lat="45.13156" lon="5.90652">
        <ele>2038</ele>
        <time>2013-09-23T18:44:25Z</time>
      </trkpt>
      <trkpt lat="45.1316" lon="5.90644">
        <ele>2040</ele>
        <time>2013-09-23T18:44:38Z</time>
      </trkpt>
      <trkpt lat="45.13161" lon="5.90638">
        <ele>2042</ele>
        <time>2013-09-23T18:44:49Z</time>
      </trkpt>
      <trkpt lat="45.13156" lon="5.90621">
        <ele>2044</ele>
        <time>2013-09-23T18:45:07Z</time>
      </trkpt>
      <trkpt lat="45.13153" lon="5.90609">
        <ele>2043</ele>
        <time>2013-09-23T18:45:16Z</time>
      </trkpt>
      <trkpt lat="45.13149" lon="5.90599">
        <ele>2041</ele>
        <time>2013-09-23T18:45:34Z</time>
      </trkpt>
      <trkpt lat="45.13143" lon="5.90591">
        <ele>2044</ele>
        <time>2013-09-23T18:45:47Z</time>
      </trkpt>
      <trkpt lat="45.1314" lon="5.90584">
        <ele>2045</ele>
        <time>2013-09-23T18:45:56Z</time>
      </trkpt>
      <trkpt lat="45.1314" lon="5.90573">
        <ele>2038</ele>
        <time>2013-09-23T18:46:10Z</time>
      </trkpt>
      <trkpt lat="45.13138" lon="5.90564">
        <ele>2039</ele>
        <time>2013-09-23T18:46:19Z</time>
      </trkpt>
      <trkpt lat="45.13141" lon="5.90552">
        <ele>2038</ele>
        <time>2013-09-23T18:46:28Z</time>
      </trkpt>
      <trkpt lat="45.13139" lon="5.9055">
        <ele>2039</ele>
        <time>2013-09-23T18:46:37Z</time>
      </trkpt>
      <trkpt lat="45.13136" lon="5.90541">
        <ele>2039</ele>
        <time>2013-09-23T18:46:48Z</time>
      </trkpt>
      <trkpt lat="45.13133" lon="5.90535">
        <ele>2039</ele>
        <time>2013-09-23T18:46:53Z</time>
      </trkpt>
      <trkpt lat="45.13132" lon="5.90519">
        <ele>2037</ele>
        <time>2013-09-23T18:47:14Z</time>
      </trkpt>
      <trkpt lat="45.1313" lon="5.90491">
        <ele>2026</ele>
        <time>2013-09-23T18:47:33Z</time>
      </trkpt>
      <trkpt lat="45.1313" lon="5.90482">
        <ele>2025</ele>
        <time>2013-09-23T18:47:38Z</time>
      </trkpt>
      <trkpt lat="45.13129" lon="5.90467">
        <ele>2025</ele>
        <time>2013-09-23T18:47:49Z</time>
      </trkpt>
      <trkpt lat="45.13127" lon="5.90458">
        <ele>2025</ele>
        <time>2013-09-23T18:48:00Z</time>
      </trkpt>
      <trkpt lat="45.13121" lon="5.90451">
        <ele>2026</ele>
        <time>2013-09-23T18:48:05Z</time>
      </trkpt>
      <trkpt lat="45.13124" lon="5.90435">
        <ele>2024</ele>
        <time>2013-09-23T18:48:19Z</time>
      </trkpt>
      <trkpt lat="45.13118" lon="5.90418">
        <ele>2026</ele>
        <time>2013-09-23T18:48:33Z</time>
      </trkpt>
      <trkpt lat="45.13114" lon="5.90398">
        <ele>2010</ele>
        <time>2013-09-23T18:48:44Z</time>
      </trkpt>
      <trkpt lat="45.13112" lon="5.90383">
        <ele>2007</ele>
        <time>2013-09-23T18:48:56Z</time>
      </trkpt>
      <trkpt lat="45.13111" lon="5.90373">
        <ele>2005</ele>
        <time>2013-09-23T18:49:05Z</time>
      </trkpt>
      <trkpt lat="45.13108" lon="5.90361">
        <ele>2003</ele>
        <time>2013-09-23T18:49:12Z</time>
      </trkpt>
      <trkpt lat="45.13107" lon="5.90357">
        <ele>2002</ele>
        <time>2013-09-23T18:49:14Z</time>
      </trkpt>
      <trkpt lat="45.13099" lon="5.9034">
        <ele>2002</ele>
        <time>2013-09-23T18:49:24Z</time>
      </trkpt>
      <trkpt lat="45.13102" lon="5.90329">
        <ele>1985</ele>
        <time>2013-09-23T18:49:36Z</time>
      </trkpt>
      <trkpt lat="45.13106" lon="5.90317">
        <ele>1981</ele>
        <time>2013-09-23T18:49:42Z</time>
      </trkpt>
      <trkpt lat="45.13107" lon="5.90314">
        <ele>1979</ele>
        <time>2013-09-23T18:49:44Z</time>
      </trkpt>
      <trkpt lat="45.13113" lon="5.90303">
        <ele>1975</ele>
        <time>2013-09-23T18:49:55Z</time>
      </trkpt>
      <trkpt lat="45.1311" lon="5.903">
        <ele>1975</ele>
        <time>2013-09-23T18:49:59Z</time>
      </trkpt>
      <trkpt lat="45.13106" lon="5.90293">
        <ele>1974</ele>
        <time>2013-09-23T18:50:03Z</time>
      </trkpt>
      <trkpt lat="45.13101" lon="5.90287">
        <ele>1973</ele>
        <time>2013-09-23T18:50:08Z</time>
      </trkpt>
      <trkpt lat="45.13089" lon="5.90284">
        <ele>1973</ele>
        <time>2013-09-23T18:50:19Z</time>
      </trkpt>
      <trkpt lat="45.13085" lon="5.90284">
        <ele>1973</ele>
        <time>2013-09-23T18:50:22Z</time>
      </trkpt>
      <trkpt lat="45.13081" lon="5.90279">
        <ele>1986</ele>
        <time>2013-09-23T18:50:25Z</time>
      </trkpt>
      <trkpt lat="45.1305" lon="5.90261">
        <ele>1987</ele>
        <time>2013-09-23T18:50:39Z</time>
      </trkpt>
      <trkpt lat="45.13045" lon="5.90253">
        <ele>1987</ele>
        <time>2013-09-23T18:50:44Z</time>
      </trkpt>
      <trkpt lat="45.13039" lon="5.90247">
        <ele>1967</ele>
        <time>2013-09-23T18:50:49Z</time>
      </trkpt>
      <trkpt lat="45.13028" lon="5.90234">
        <ele>1969</ele>
        <time>2013-09-23T18:51:02Z</time>
      </trkpt>
      <trkpt lat="45.13025" lon="5.90231">
        <ele>1969</ele>
        <time>2013-09-23T18:51:05Z</time>
      </trkpt>
      <trkpt lat="45.13017" lon="5.9022">
        <ele>1968</ele>
        <time>2013-09-23T18:51:18Z</time>
      </trkpt>
      <trkpt lat="45.13009" lon="5.9021">
        <ele>1967</ele>
        <time>2013-09-23T18:51:32Z</time>
      </trkpt>
      <trkpt lat="45.13003" lon="5.90201">
        <ele>1966</ele>
        <time>2013-09-23T18:51:39Z</time>
      </trkpt>
      <trkpt lat="45.12998" lon="5.9019">
        <ele>1997</ele>
        <time>2013-09-23T18:51:50Z</time>
      </trkpt>
      <trkpt lat="45.12998" lon="5.90187">
        <ele>1995</ele>
        <time>2013-09-23T18:51:53Z</time>
      </trkpt>
      <trkpt lat="45.12997" lon="5.90185">
        <ele>1993</ele>
        <time>2013-09-23T18:51:55Z</time>
      </trkpt>
      <trkpt lat="45.12995" lon="5.90183">
        <ele>1992</ele>
        <time>2013-09-23T18:51:58Z</time>
      </trkpt>
      <trkpt lat="45.12995" lon="5.90173">
        <ele>1982</ele>
        <time>2013-09-23T18:52:05Z</time>
      </trkpt>
      <trkpt lat="45.13002" lon="5.90157">
        <ele>1960</ele>
        <time>2013-09-23T18:52:18Z</time>
      </trkpt>
      <trkpt lat="45.13" lon="5.90147">
        <ele>1988</ele>
        <time>2013-09-23T18:52:25Z</time>
      </trkpt>
      <trkpt lat="45.13" lon="5.90138">
        <ele>1954</ele>
        <time>2013-09-23T18:52:33Z</time>
      </trkpt>
      <trkpt lat="45.12996" lon="5.90116">
        <ele>1991</ele>
        <time>2013-09-23T18:52:46Z</time>
      </trkpt>
      <trkpt lat="45.13008" lon="5.90107">
        <ele>1951</ele>
        <time>2013-09-23T18:52:53Z</time>
      </trkpt>
      <trkpt lat="45.13007" lon="5.90102">
        <ele>1952</ele>
        <time>2013-09-23T18:52:56Z</time>
      </trkpt>
      <trkpt lat="45.13004" lon="5.90078">
        <ele>1954</ele>
        <time>2013-09-23T18:53:09Z</time>
      </trkpt>
      <trkpt lat="45.13005" lon="5.90064">
        <ele>1948</ele>
        <time>2013-09-23T18:53:17Z</time>
      </trkpt>
      <trkpt lat="45.13012" lon="5.90058">
        <ele>1945</ele>
        <time>2013-09-23T18:53:21Z</time>
      </trkpt>
      <trkpt lat="45.13011" lon="5.9005">
        <ele>1944</ele>
        <time>2013-09-23T18:53:25Z</time>
      </trkpt>
      <trkpt lat="45.13008" lon="5.90025">
        <ele>1944</ele>
        <time>2013-09-23T18:53:40Z</time>
      </trkpt>
      <trkpt lat="45.13004" lon="5.90008">
        <ele>1949</ele>
        <time>2013-09-23T18:53:51Z</time>
      </trkpt>
      <trkpt lat="45.13001" lon="5.89984">
        <ele>1945</ele>
        <time>2013-09-23T18:54:05Z</time>
      </trkpt>
      <trkpt lat="45.12998" lon="5.89966">
        <ele>1965</ele>
        <time>2013-09-23T18:54:18Z</time>
      </trkpt>
      <trkpt lat="45.12996" lon="5.89947">
        <ele>1964</ele>
        <time>2013-09-23T18:54:28Z</time>
      </trkpt>
      <trkpt lat="45.12993" lon="5.89932">
        <ele>1959</ele>
        <time>2013-09-23T18:54:36Z</time>
      </trkpt>
      <trkpt lat="45.1299" lon="5.89922">
        <ele>1957</ele>
        <time>2013-09-23T18:54:42Z</time>
      </trkpt>
      <trkpt lat="45.12986" lon="5.8991">
        <ele>1952</ele>
        <time>2013-09-23T18:54:49Z</time>
      </trkpt>
      <trkpt lat="45.12978" lon="5.89897">
        <ele>1954</ele>
        <time>2013-09-23T18:54:57Z</time>
      </trkpt>
      <trkpt lat="45.12962" lon="5.89878">
        <ele>1956</ele>
        <time>2013-09-23T18:55:14Z</time>
      </trkpt>
      <trkpt lat="45.12956" lon="5.89866">
        <ele>1956</ele>
        <time>2013-09-23T18:55:22Z</time>
      </trkpt>
      <trkpt lat="45.12947" lon="5.89846">
        <ele>1956</ele>
        <time>2013-09-23T18:55:34Z</time>
      </trkpt>
      <trkpt lat="45.12939" lon="5.89825">
        <ele>1948</ele>
        <time>2013-09-23T18:55:47Z</time>
      </trkpt>
      <trkpt lat="45.12933" lon="5.89802">
        <ele>1946</ele>
        <time>2013-09-23T18:56:00Z</time>
      </trkpt>
      <trkpt lat="45.12924" lon="5.89781">
        <ele>1945</ele>
        <time>2013-09-23T18:56:14Z</time>
      </trkpt>
      <trkpt lat="45.12909" lon="5.89761">
        <ele>1961</ele>
        <time>2013-09-23T18:56:28Z</time>
      </trkpt>
      <trkpt lat="45.12902" lon="5.89751">
        <ele>1962</ele>
        <time>2013-09-23T18:56:36Z</time>
      </trkpt>
      <trkpt lat="45.12893" lon="5.89733">
        <ele>1956</ele>
        <time>2013-09-23T18:56:47Z</time>
      </trkpt>
      <trkpt lat="45.12886" lon="5.89715">
        <ele>1956</ele>
        <time>2013-09-23T18:56:57Z</time>
      </trkpt>
      <trkpt lat="45.12883" lon="5.89713">
        <ele>1956</ele>
        <time>2013-09-23T18:56:59Z</time>
      </trkpt>
      <trkpt lat="45.1287" lon="5.89685">
        <ele>1955</ele>
        <time>2013-09-23T18:57:15Z</time>
      </trkpt>
      <trkpt lat="45.1287" lon="5.89683">
        <ele>1955</ele>
        <time>2013-09-23T18:57:16Z</time>
      </trkpt>
      <trkpt lat="45.12857" lon="5.8967">
        <ele>1955</ele>
        <time>2013-09-23T18:57:29Z</time>
      </trkpt>
      <trkpt lat="45.12848" lon="5.89659">
        <ele>1947</ele>
        <time>2013-09-23T18:57:38Z</time>
      </trkpt>
      <trkpt lat="45.12848" lon="5.89655">
        <ele>1946</ele>
        <time>2013-09-23T18:57:42Z</time>
      </trkpt>
      <trkpt lat="45.12849" lon="5.89647">
        <ele>1945</ele>
        <time>2013-09-23T18:57:46Z</time>
      </trkpt>
      <trkpt lat="45.12847" lon="5.89635">
        <ele>1943</ele>
        <time>2013-09-23T18:57:53Z</time>
      </trkpt>
      <trkpt lat="45.12844" lon="5.89619">
        <ele>1940</ele>
        <time>2013-09-23T18:58:02Z</time>
      </trkpt>
      <trkpt lat="45.12835" lon="5.89598">
        <ele>1937</ele>
        <time>2013-09-23T18:58:15Z</time>
      </trkpt>
      <trkpt lat="45.12825" lon="5.89576">
        <ele>1937</ele>
        <time>2013-09-23T18:58:28Z</time>
      </trkpt>
      <trkpt lat="45.12817" lon="5.8955">
        <ele>1939</ele>
        <time>2013-09-23T18:58:42Z</time>
      </trkpt>
      <trkpt lat="45.1281" lon="5.89537">
        <ele>1938</ele>
        <time>2013-09-23T18:58:51Z</time>
      </trkpt>
      <trkpt lat="45.12808" lon="5.89529">
        <ele>1938</ele>
        <time>2013-09-23T18:58:56Z</time>
      </trkpt>
      <trkpt lat="45.12805" lon="5.89525">
        <ele>1938</ele>
        <time>2013-09-23T18:58:59Z</time>
      </trkpt>
      <trkpt lat="45.12803" lon="5.89507">
        <ele>1936</ele>
        <time>2013-09-23T18:59:09Z</time>
      </trkpt>
      <trkpt lat="45.12793" lon="5.89484">
        <ele>1928</ele>
        <time>2013-09-23T18:59:22Z</time>
      </trkpt>
      <trkpt lat="45.12793" lon="5.89482">
        <ele>1928</ele>
        <time>2013-09-23T18:59:23Z</time>
      </trkpt>
      <trkpt lat="45.12781" lon="5.8946">
        <ele>1928</ele>
        <time>2013-09-23T18:59:37Z</time>
      </trkpt>
      <trkpt lat="45.12778" lon="5.89454">
        <ele>1928</ele>
        <time>2013-09-23T18:59:42Z</time>
      </trkpt>
      <trkpt lat="45.12771" lon="5.89431">
        <ele>1928</ele>
        <time>2013-09-23T18:59:58Z</time>
      </trkpt>
      <trkpt lat="45.12773" lon="5.89424">
        <ele>1927</ele>
        <time>2013-09-23T19:00:02Z</time>
      </trkpt>
      <trkpt lat="45.12774" lon="5.89421">
        <ele>1927</ele>
        <time>2013-09-23T19:00:04Z</time>
      </trkpt>
      <trkpt lat="45.12771" lon="5.894">
        <ele>1920</ele>
        <time>2013-09-23T19:00:19Z</time>
      </trkpt>
      <trkpt lat="45.12771" lon="5.89398">
        <ele>1920</ele>
        <time>2013-09-23T19:00:21Z</time>
      </trkpt>
      <trkpt lat="45.12768" lon="5.89394">
        <ele>1920</ele>
        <time>2013-09-23T19:00:26Z</time>
      </trkpt>
      <trkpt lat="45.1276" lon="5.89369">
        <ele>1918</ele>
        <time>2013-09-23T19:00:41Z</time>
      </trkpt>
      <trkpt lat="45.1276" lon="5.89368">
        <ele>1918</ele>
        <time>2013-09-23T19:00:42Z</time>
      </trkpt>
      <trkpt lat="45.12754" lon="5.89361">
        <ele>1917</ele>
        <time>2013-09-23T19:00:48Z</time>
      </trkpt>
      <trkpt lat="45.12747" lon="5.89342">
        <ele>1922</ele>
        <time>2013-09-23T19:00:59Z</time>
      </trkpt>
      <trkpt lat="45.12732" lon="5.89332">
        <ele>1916</ele>
        <time>2013-09-23T19:01:12Z</time>
      </trkpt>
      <trkpt lat="45.12729" lon="5.89323">
        <ele>1916</ele>
        <time>2013-09-23T19:01:27Z</time>
      </trkpt>
      <trkpt lat="45.12723" lon="5.89307">
        <ele>1914</ele>
        <time>2013-09-23T19:01:42Z</time>
      </trkpt>
      <trkpt lat="45.12726" lon="5.89299">
        <ele>1914</ele>
        <time>2013-09-23T19:01:51Z</time>
      </trkpt>
      <trkpt lat="45.12727" lon="5.89287">
        <ele>1912</ele>
        <time>2013-09-23T19:02:00Z</time>
      </trkpt>
      <trkpt lat="45.12735" lon="5.89277">
        <ele>1909</ele>
        <time>2013-09-23T19:02:07Z</time>
      </trkpt>
      <trkpt lat="45.12734" lon="5.89268">
        <ele>1907</ele>
        <time>2013-09-23T19:02:21Z</time>
      </trkpt>
      <trkpt lat="45.12736" lon="5.89262">
        <ele>1906</ele>
        <time>2013-09-23T19:02:26Z</time>
      </trkpt>
      <trkpt lat="45.12733" lon="5.89247">
        <ele>1896</ele>
        <time>2013-09-23T19:02:36Z</time>
      </trkpt>
      <trkpt lat="45.12738" lon="5.89233">
        <ele>1895</ele>
        <time>2013-09-23T19:02:50Z</time>
      </trkpt>
      <trkpt lat="45.12742" lon="5.89228">
        <ele>1894</ele>
        <time>2013-09-23T19:02:57Z</time>
      </trkpt>
      <trkpt lat="45.12741" lon="5.89217">
        <ele>1893</ele>
        <time>2013-09-23T19:03:14Z</time>
      </trkpt>
      <trkpt lat="45.12743" lon="5.89204">
        <ele>1890</ele>
        <time>2013-09-23T19:03:34Z</time>
      </trkpt>
      <trkpt lat="45.12749" lon="5.892">
        <ele>1889</ele>
        <time>2013-09-23T19:03:43Z</time>
      </trkpt>
      <trkpt lat="45.12748" lon="5.89188">
        <ele>1885</ele>
        <time>2013-09-23T19:03:54Z</time>
      </trkpt>
      <trkpt lat="45.12743" lon="5.89174">
        <ele>1880</ele>
        <time>2013-09-23T19:04:06Z</time>
      </trkpt>
      <trkpt lat="45.12739" lon="5.89161">
        <ele>1873</ele>
        <time>2013-09-23T19:04:13Z</time>
      </trkpt>
      <trkpt lat="45.12739" lon="5.8916">
        <ele>1873</ele>
        <time>2013-09-23T19:04:14Z</time>
      </trkpt>
      <trkpt lat="45.1273" lon="5.89142">
        <ele>1874</ele>
        <time>2013-09-23T19:04:26Z</time>
      </trkpt>
      <trkpt lat="45.12729" lon="5.89135">
        <ele>1873</ele>
        <time>2013-09-23T19:04:30Z</time>
      </trkpt>
      <trkpt lat="45.12723" lon="5.89121">
        <ele>1872</ele>
        <time>2013-09-23T19:04:43Z</time>
      </trkpt>
      <trkpt lat="45.12722" lon="5.89118">
        <ele>1872</ele>
        <time>2013-09-23T19:04:46Z</time>
      </trkpt>
      <trkpt lat="45.12725" lon="5.89121">
        <ele>1872</ele>
        <time>2013-09-23T19:04:58Z</time>
      </trkpt>
      <trkpt lat="45.12721" lon="5.89101">
        <ele>1870</ele>
        <time>2013-09-23T19:05:06Z</time>
      </trkpt>
      <trkpt lat="45.12723" lon="5.89096">
        <ele>1869</ele>
        <time>2013-09-23T19:05:14Z</time>
      </trkpt>
      <trkpt lat="45.12723" lon="5.89073">
        <ele>1858</ele>
        <time>2013-09-23T19:05:27Z</time>
      </trkpt>
      <trkpt lat="45.12726" lon="5.89047">
        <ele>1857</ele>
        <time>2013-09-23T19:05:41Z</time>
      </trkpt>
      <trkpt lat="45.12723" lon="5.89034">
        <ele>1857</ele>
        <time>2013-09-23T19:05:48Z</time>
      </trkpt>
      <trkpt lat="45.12724" lon="5.89021">
        <ele>1855</ele>
        <time>2013-09-23T19:05:55Z</time>
      </trkpt>
      <trkpt lat="45.12726" lon="5.89011">
        <ele>1854</ele>
        <time>2013-09-23T19:06:00Z</time>
      </trkpt>
      <trkpt lat="45.12724" lon="5.89005">
        <ele>1854</ele>
        <time>2013-09-23T19:06:03Z</time>
      </trkpt>
      <trkpt lat="45.12724" lon="5.89002">
        <ele>1854</ele>
        <time>2013-09-23T19:06:04Z</time>
      </trkpt>
      <trkpt lat="45.12724" lon="5.8899">
        <ele>1845</ele>
        <time>2013-09-23T19:06:09Z</time>
      </trkpt>
      <trkpt lat="45.12726" lon="5.88978">
        <ele>1845</ele>
        <time>2013-09-23T19:06:21Z</time>
      </trkpt>
      <trkpt lat="45.12737" lon="5.88958">
        <ele>1842</ele>
        <time>2013-09-23T19:06:34Z</time>
      </trkpt>
      <trkpt lat="45.1274" lon="5.88953">
        <ele>1841</ele>
        <time>2013-09-23T19:06:37Z</time>
      </trkpt>
      <trkpt lat="45.12742" lon="5.88936">
        <ele>1838</ele>
        <time>2013-09-23T19:06:44Z</time>
      </trkpt>
      <trkpt lat="45.12739" lon="5.88923">
        <ele>1836</ele>
        <time>2013-09-23T19:06:52Z</time>
      </trkpt>
      <trkpt lat="45.1274" lon="5.88916">
        <ele>1831</ele>
        <time>2013-09-23T19:06:56Z</time>
      </trkpt>
      <trkpt lat="45.12743" lon="5.88897">
        <ele>1830</ele>
        <time>2013-09-23T19:07:04Z</time>
      </trkpt>
      <trkpt lat="45.12745" lon="5.88893">
        <ele>1830</ele>
        <time>2013-09-23T19:07:06Z</time>
      </trkpt>
      <trkpt lat="45.1275" lon="5.88889">
        <ele>1829</ele>
        <time>2013-09-23T19:07:10Z</time>
      </trkpt>
      <trkpt lat="45.12759" lon="5.88883">
        <ele>1825</ele>
        <time>2013-09-23T19:07:17Z</time>
      </trkpt>
      <trkpt lat="45.12772" lon="5.88867">
        <ele>1824</ele>
        <time>2013-09-23T19:07:30Z</time>
      </trkpt>
      <trkpt lat="45.12768" lon="5.88854">
        <ele>1825</ele>
        <time>2013-09-23T19:07:37Z</time>
      </trkpt>
      <trkpt lat="45.12763" lon="5.88829">
        <ele>1828</ele>
        <time>2013-09-23T19:07:49Z</time>
      </trkpt>
      <trkpt lat="45.12753" lon="5.888">
        <ele>1830</ele>
        <time>2013-09-23T19:08:04Z</time>
      </trkpt>
      <trkpt lat="45.12748" lon="5.88792">
        <ele>1822</ele>
        <time>2013-09-23T19:08:09Z</time>
      </trkpt>
      <trkpt lat="45.12747" lon="5.88782">
        <ele>1823</ele>
        <time>2013-09-23T19:08:14Z</time>
      </trkpt>
      <trkpt lat="45.12738" lon="5.88755">
        <ele>1825</ele>
        <time>2013-09-23T19:08:29Z</time>
      </trkpt>
      <trkpt lat="45.12732" lon="5.88736">
        <ele>1821</ele>
        <time>2013-09-23T19:08:39Z</time>
      </trkpt>
      <trkpt lat="45.1273" lon="5.88719">
        <ele>1820</ele>
        <time>2013-09-23T19:08:53Z</time>
      </trkpt>
      <trkpt lat="45.12729" lon="5.8871">
        <ele>1819</ele>
        <time>2013-09-23T19:08:58Z</time>
      </trkpt>
      <trkpt lat="45.12719" lon="5.88681">
        <ele>1819</ele>
        <time>2013-09-23T19:09:14Z</time>
      </trkpt>
      <trkpt lat="45.12715" lon="5.88653">
        <ele>1814</ele>
        <time>2013-09-23T19:09:30Z</time>
      </trkpt>
      <trkpt lat="45.12717" lon="5.88629">
        <ele>1813</ele>
        <time>2013-09-23T19:09:43Z</time>
      </trkpt>
      <trkpt lat="45.12717" lon="5.88627">
        <ele>1813</ele>
        <time>2013-09-23T19:09:44Z</time>
      </trkpt>
      <trkpt lat="45.1272" lon="5.88611">
        <ele>1813</ele>
        <time>2013-09-23T19:09:52Z</time>
      </trkpt>
      <trkpt lat="45.12729" lon="5.88586">
        <ele>1814</ele>
        <time>2013-09-23T19:10:07Z</time>
      </trkpt>
      <trkpt lat="45.12729" lon="5.88579">
        <ele>1809</ele>
        <time>2013-09-23T19:10:10Z</time>
      </trkpt>
      <trkpt lat="45.12739" lon="5.88555">
        <ele>1807</ele>
        <time>2013-09-23T19:10:24Z</time>
      </trkpt>
      <trkpt lat="45.12742" lon="5.88548">
        <ele>1807</ele>
        <time>2013-09-23T19:10:29Z</time>
      </trkpt>
      <trkpt lat="45.12746" lon="5.88543">
        <ele>1806</ele>
        <time>2013-09-23T19:10:33Z</time>
      </trkpt>
      <trkpt lat="45.12751" lon="5.88538">
        <ele>1814</ele>
        <time>2013-09-23T19:10:38Z</time>
      </trkpt>
      <trkpt lat="45.12759" lon="5.88531">
        <ele>1813</ele>
        <time>2013-09-23T19:10:45Z</time>
      </trkpt>
      <trkpt lat="45.12763" lon="5.88523">
        <ele>1812</ele>
        <time>2013-09-23T19:10:51Z</time>
      </trkpt>
      <trkpt lat="45.12762" lon="5.88514">
        <ele>1810</ele>
        <time>2013-09-23T19:10:56Z</time>
      </trkpt>
      <trkpt lat="45.12764" lon="5.88495">
        <ele>1800</ele>
        <time>2013-09-23T19:11:05Z</time>
      </trkpt>
      <trkpt lat="45.12765" lon="5.8848">
        <ele>1798</ele>
        <time>2013-09-23T19:11:13Z</time>
      </trkpt>
      <trkpt lat="45.12773" lon="5.88462">
        <ele>1795</ele>
        <time>2013-09-23T19:11:23Z</time>
      </trkpt>
      <trkpt lat="45.12775" lon="5.88459">
        <ele>1795</ele>
        <time>2013-09-23T19:11:25Z</time>
      </trkpt>
      <trkpt lat="45.12791" lon="5.88439">
        <ele>1793</ele>
        <time>2013-09-23T19:11:40Z</time>
      </trkpt>
      <trkpt lat="45.12797" lon="5.88437">
        <ele>1792</ele>
        <time>2013-09-23T19:11:44Z</time>
      </trkpt>
      <trkpt lat="45.12809" lon="5.88421">
        <ele>1790</ele>
        <time>2013-09-23T19:11:57Z</time>
      </trkpt>
      <trkpt lat="45.12814" lon="5.88414">
        <ele>1780</ele>
        <time>2013-09-23T19:12:06Z</time>
      </trkpt>
      <trkpt lat="45.12823" lon="5.88403">
        <ele>1780</ele>
        <time>2013-09-23T19:12:15Z</time>
      </trkpt>
      <trkpt lat="45.12837" lon="5.88384">
        <ele>1784</ele>
        <time>2013-09-23T19:12:29Z</time>
      </trkpt>
      <trkpt lat="45.12845" lon="5.8837">
        <ele>1783</ele>
        <time>2013-09-23T19:12:38Z</time>
      </trkpt>
      <trkpt lat="45.12848" lon="5.88362">
        <ele>1782</ele>
        <time>2013-09-23T19:12:43Z</time>
      </trkpt>
      <trkpt lat="45.12856" lon="5.88349">
        <ele>1781</ele>
        <time>2013-09-23T19:12:53Z</time>
      </trkpt>
      <trkpt lat="45.12858" lon="5.88341">
        <ele>1781</ele>
        <time>2013-09-23T19:12:58Z</time>
      </trkpt>
      <trkpt lat="45.12863" lon="5.88323">
        <ele>1775</ele>
        <time>2013-09-23T19:13:10Z</time>
      </trkpt>
      <trkpt lat="45.12871" lon="5.88304">
        <ele>1776</ele>
        <time>2013-09-23T19:13:21Z</time>
      </trkpt>
      <trkpt lat="45.12872" lon="5.88297">
        <ele>1776</ele>
        <time>2013-09-23T19:13:24Z</time>
      </trkpt>
      <trkpt lat="45.1287" lon="5.88285">
        <ele>1774</ele>
        <time>2013-09-23T19:13:32Z</time>
      </trkpt>
      <trkpt lat="45.12868" lon="5.88272">
        <ele>1773</ele>
        <time>2013-09-23T19:13:38Z</time>
      </trkpt>
      <trkpt lat="45.12866" lon="5.88265">
        <ele>1772</ele>
        <time>2013-09-23T19:13:43Z</time>
      </trkpt>
      <trkpt lat="45.12866" lon="5.88264">
        <ele>1772</ele>
        <time>2013-09-23T19:13:49Z</time>
      </trkpt>
      <trkpt lat="45.12862" lon="5.88251">
        <ele>1770</ele>
        <time>2013-09-23T19:13:59Z</time>
      </trkpt>
      <trkpt lat="45.12861" lon="5.88245">
        <ele>1763</ele>
        <time>2013-09-23T19:14:12Z</time>
      </trkpt>
      <trkpt lat="45.12853" lon="5.88235">
        <ele>1762</ele>
        <time>2013-09-23T19:14:20Z</time>
      </trkpt>
      <trkpt lat="45.12847" lon="5.88224">
        <ele>1761</ele>
        <time>2013-09-23T19:14:26Z</time>
      </trkpt>
      <trkpt lat="45.12845" lon="5.88222">
        <ele>1761</ele>
        <time>2013-09-23T19:14:28Z</time>
      </trkpt>
      <trkpt lat="45.12837" lon="5.88212">
        <ele>1760</ele>
        <time>2013-09-23T19:14:34Z</time>
      </trkpt>
      <trkpt lat="45.1283" lon="5.88203">
        <ele>1745</ele>
        <time>2013-09-23T19:14:39Z</time>
      </trkpt>
      <trkpt lat="45.12824" lon="5.88199">
        <ele>1745</ele>
        <time>2013-09-23T19:14:44Z</time>
      </trkpt>
      <trkpt lat="45.12822" lon="5.88197">
        <ele>1745</ele>
        <time>2013-09-23T19:14:48Z</time>
      </trkpt>
      <trkpt lat="45.12806" lon="5.88171">
        <ele>1742</ele>
        <time>2013-09-23T19:15:06Z</time>
      </trkpt>
      <trkpt lat="45.12803" lon="5.88146">
        <ele>1734</ele>
        <time>2013-09-23T19:15:19Z</time>
      </trkpt>
      <trkpt lat="45.12794" lon="5.88124">
        <ele>1732</ele>
        <time>2013-09-23T19:15:32Z</time>
      </trkpt>
      <trkpt lat="45.12784" lon="5.88106">
        <ele>1729</ele>
        <time>2013-09-23T19:15:40Z</time>
      </trkpt>
      <trkpt lat="45.12777" lon="5.88096">
        <ele>1727</ele>
        <time>2013-09-23T19:15:44Z</time>
      </trkpt>
      <trkpt lat="45.12771" lon="5.88087">
        <ele>1724</ele>
        <time>2013-09-23T19:15:48Z</time>
      </trkpt>
      <trkpt lat="45.12763" lon="5.88071">
        <ele>1721</ele>
        <time>2013-09-23T19:15:56Z</time>
      </trkpt>
      <trkpt lat="45.12755" lon="5.88059">
        <ele>1722</ele>
        <time>2013-09-23T19:16:07Z</time>
      </trkpt>
      <trkpt lat="45.12746" lon="5.88046">
        <ele>1706</ele>
        <time>2013-09-23T19:16:18Z</time>
      </trkpt>
      <trkpt lat="45.12737" lon="5.88035">
        <ele>1706</ele>
        <time>2013-09-23T19:16:27Z</time>
      </trkpt>
      <trkpt lat="45.12724" lon="5.88021">
        <ele>1705</ele>
        <time>2013-09-23T19:16:39Z</time>
      </trkpt>
      <trkpt lat="45.12711" lon="5.88007">
        <ele>1702</ele>
        <time>2013-09-23T19:16:49Z</time>
      </trkpt>
      <trkpt lat="45.12699" lon="5.88004">
        <ele>1699</ele>
        <time>2013-09-23T19:16:57Z</time>
      </trkpt>
      <trkpt lat="45.12685" lon="5.87992">
        <ele>1696</ele>
        <time>2013-09-23T19:17:08Z</time>
      </trkpt>
      <trkpt lat="45.12677" lon="5.87989">
        <ele>1694</ele>
        <time>2013-09-23T19:17:13Z</time>
      </trkpt>
      <trkpt lat="45.12671" lon="5.87985">
        <ele>1694</ele>
        <time>2013-09-23T19:17:17Z</time>
      </trkpt>
      <trkpt lat="45.12668" lon="5.87982">
        <ele>1694</ele>
        <time>2013-09-23T19:17:20Z</time>
      </trkpt>
      <trkpt lat="45.12655" lon="5.87977">
        <ele>1683</ele>
        <time>2013-09-23T19:17:30Z</time>
      </trkpt>
      <trkpt lat="45.12647" lon="5.87955">
        <ele>1683</ele>
        <time>2013-09-23T19:17:44Z</time>
      </trkpt>
      <trkpt lat="45.12642" lon="5.87948">
        <ele>1682</ele>
        <time>2013-09-23T19:17:49Z</time>
      </trkpt>
      <trkpt lat="45.12643" lon="5.87938">
        <ele>1683</ele>
        <time>2013-09-23T19:17:54Z</time>
      </trkpt>
      <trkpt lat="45.12642" lon="5.87928">
        <ele>1683</ele>
        <time>2013-09-23T19:17:58Z</time>
      </trkpt>
      <trkpt lat="45.12639" lon="5.87922">
        <ele>1683</ele>
        <time>2013-09-23T19:18:02Z</time>
      </trkpt>
      <trkpt lat="45.12624" lon="5.87919">
        <ele>1681</ele>
        <time>2013-09-23T19:18:09Z</time>
      </trkpt>
      <trkpt lat="45.12599" lon="5.87909">
        <ele>1677</ele>
        <time>2013-09-23T19:18:25Z</time>
      </trkpt>
      <trkpt lat="45.12592" lon="5.87903">
        <ele>1676</ele>
        <time>2013-09-23T19:18:29Z</time>
      </trkpt>
      <trkpt lat="45.12587" lon="5.879">
        <ele>1676</ele>
        <time>2013-09-23T19:18:33Z</time>
      </trkpt>
      <trkpt lat="45.12572" lon="5.87906">
        <ele>1670</ele>
        <time>2013-09-23T19:18:49Z</time>
      </trkpt>
      <trkpt lat="45.12551" lon="5.87897">
        <ele>1667</ele>
        <time>2013-09-23T19:19:04Z</time>
      </trkpt>
      <trkpt lat="45.12545" lon="5.87894">
        <ele>1666</ele>
        <time>2013-09-23T19:19:18Z</time>
      </trkpt>
    </trkseg>
  </trk>
</gpx>